<?xml version="1.0" encoding="UTF-8" standalone="no" ?>
<gpx xmlns="http://www.topografix.com/GPX/1/1" xmlns:xsi="http://www.w3.org/2001/XMLSchema-instance" xsi:schemaLocation="http://www.topografix.com/GPX/1/1 http://www.topografix.com/GPX/1/1/gpx.xsd" version="1.1" creator="VisuGPX - https://www.visugpx.com">
  <metadata>
    <name>Azas après midi    6 km</name>
  </metadata>
  <trk>
    <name><![CDATA[Azas après midi    6 km]]></name>
    <trkseg>
      <trkpt lat="43.72746" lon="1.67682">
        <ele>178.94</ele>
        <time>2019-10-10T12:18:22Z</time>
      </trkpt>
      <trkpt lat="43.72746" lon="1.67682">
        <ele>178.94</ele>
        <time>2019-10-10T12:18:23Z</time>
      </trkpt>
      <trkpt lat="43.72746" lon="1.67682">
        <ele>185.19</ele>
        <time>2019-10-10T12:18:27Z</time>
      </trkpt>
      <trkpt lat="43.72746" lon="1.67682">
        <ele>182.79</ele>
        <time>2019-10-10T12:18:28Z</time>
      </trkpt>
      <trkpt lat="43.72746" lon="1.67683">
        <ele>183.27</ele>
        <time>2019-10-10T12:19:04Z</time>
      </trkpt>
      <trkpt lat="43.72747" lon="1.67682">
        <ele>183.27</ele>
        <time>2019-10-10T12:19:18Z</time>
      </trkpt>
      <trkpt lat="43.72747" lon="1.67683">
        <ele>183.27</ele>
        <time>2019-10-10T12:19:38Z</time>
      </trkpt>
      <trkpt lat="43.72743" lon="1.67685">
        <ele>183.27</ele>
        <time>2019-10-10T12:19:51Z</time>
      </trkpt>
      <trkpt lat="43.72739" lon="1.67683">
        <ele>183.27</ele>
        <time>2019-10-10T12:20:04Z</time>
      </trkpt>
      <trkpt lat="43.72745" lon="1.67683">
        <ele>183.27</ele>
        <time>2019-10-10T12:20:23Z</time>
      </trkpt>
      <trkpt lat="43.72748" lon="1.67681">
        <ele>183.27</ele>
        <time>2019-10-10T12:20:27Z</time>
      </trkpt>
      <trkpt lat="43.72754" lon="1.67678">
        <ele>183.27</ele>
        <time>2019-10-10T12:20:35Z</time>
      </trkpt>
      <trkpt lat="43.72756" lon="1.67677">
        <ele>183.27</ele>
        <time>2019-10-10T12:20:36Z</time>
      </trkpt>
      <trkpt lat="43.72765" lon="1.67673">
        <ele>183.27</ele>
        <time>2019-10-10T12:20:45Z</time>
      </trkpt>
      <trkpt lat="43.72769" lon="1.67668">
        <ele>183.27</ele>
        <time>2019-10-10T12:20:51Z</time>
      </trkpt>
      <trkpt lat="43.72773" lon="1.67656">
        <ele>183.27</ele>
        <time>2019-10-10T12:21:05Z</time>
      </trkpt>
      <trkpt lat="43.72777" lon="1.67652">
        <ele>183.27</ele>
        <time>2019-10-10T12:21:10Z</time>
      </trkpt>
      <trkpt lat="43.72779" lon="1.67652">
        <ele>183.27</ele>
        <time>2019-10-10T12:21:11Z</time>
      </trkpt>
      <trkpt lat="43.7278" lon="1.67651">
        <ele>183.27</ele>
        <time>2019-10-10T12:21:12Z</time>
      </trkpt>
      <trkpt lat="43.72796" lon="1.67646">
        <ele>183.27</ele>
        <time>2019-10-10T12:21:29Z</time>
      </trkpt>
      <trkpt lat="43.7281" lon="1.6764">
        <ele>183.27</ele>
        <time>2019-10-10T12:21:46Z</time>
      </trkpt>
      <trkpt lat="43.72825" lon="1.67633">
        <ele>183.27</ele>
        <time>2019-10-10T12:22:03Z</time>
      </trkpt>
      <trkpt lat="43.72838" lon="1.67629">
        <ele>183.27</ele>
        <time>2019-10-10T12:22:19Z</time>
      </trkpt>
      <trkpt lat="43.72844" lon="1.67627">
        <ele>183.27</ele>
        <time>2019-10-10T12:22:26Z</time>
      </trkpt>
      <trkpt lat="43.72846" lon="1.67626">
        <ele>183.27</ele>
        <time>2019-10-10T12:22:27Z</time>
      </trkpt>
      <trkpt lat="43.72847" lon="1.67626">
        <ele>183.27</ele>
        <time>2019-10-10T12:22:28Z</time>
      </trkpt>
      <trkpt lat="43.72859" lon="1.67622">
        <ele>183.27</ele>
        <time>2019-10-10T12:22:39Z</time>
      </trkpt>
      <trkpt lat="43.72866" lon="1.67618">
        <ele>183.27</ele>
        <time>2019-10-10T12:22:47Z</time>
      </trkpt>
      <trkpt lat="43.72868" lon="1.67617">
        <ele>183.27</ele>
        <time>2019-10-10T12:22:48Z</time>
      </trkpt>
      <trkpt lat="43.72869" lon="1.67617">
        <ele>183.27</ele>
        <time>2019-10-10T12:22:49Z</time>
      </trkpt>
      <trkpt lat="43.72886" lon="1.67611">
        <ele>183.27</ele>
        <time>2019-10-10T12:23:04Z</time>
      </trkpt>
      <trkpt lat="43.72902" lon="1.67606">
        <ele>183.27</ele>
        <time>2019-10-10T12:23:20Z</time>
      </trkpt>
      <trkpt lat="43.72903" lon="1.67606">
        <ele>183.27</ele>
        <time>2019-10-10T12:23:21Z</time>
      </trkpt>
      <trkpt lat="43.72905" lon="1.67605">
        <ele>183.27</ele>
        <time>2019-10-10T12:23:23Z</time>
      </trkpt>
      <trkpt lat="43.72906" lon="1.67604">
        <ele>183.27</ele>
        <time>2019-10-10T12:23:24Z</time>
      </trkpt>
      <trkpt lat="43.72909" lon="1.67604">
        <ele>183.27</ele>
        <time>2019-10-10T12:23:27Z</time>
      </trkpt>
      <trkpt lat="43.72911" lon="1.67603">
        <ele>183.27</ele>
        <time>2019-10-10T12:23:28Z</time>
      </trkpt>
      <trkpt lat="43.72915" lon="1.67601">
        <ele>181.83</ele>
        <time>2019-10-10T12:23:32Z</time>
      </trkpt>
      <trkpt lat="43.72915" lon="1.67601">
        <ele>181.83</ele>
        <time>2019-10-10T12:23:33Z</time>
      </trkpt>
      <trkpt lat="43.72917" lon="1.67601">
        <ele>181.83</ele>
        <time>2019-10-10T12:23:34Z</time>
      </trkpt>
      <trkpt lat="43.72918" lon="1.676">
        <ele>181.83</ele>
        <time>2019-10-10T12:23:35Z</time>
      </trkpt>
      <trkpt lat="43.72919" lon="1.676">
        <ele>181.83</ele>
        <time>2019-10-10T12:23:36Z</time>
      </trkpt>
      <trkpt lat="43.7292" lon="1.676">
        <ele>181.83</ele>
        <time>2019-10-10T12:23:37Z</time>
      </trkpt>
      <trkpt lat="43.72921" lon="1.67599">
        <ele>181.83</ele>
        <time>2019-10-10T12:23:38Z</time>
      </trkpt>
      <trkpt lat="43.72922" lon="1.67599">
        <ele>181.83</ele>
        <time>2019-10-10T12:23:39Z</time>
      </trkpt>
      <trkpt lat="43.72923" lon="1.67598">
        <ele>181.83</ele>
        <time>2019-10-10T12:23:40Z</time>
      </trkpt>
      <trkpt lat="43.72924" lon="1.67598">
        <ele>181.83</ele>
        <time>2019-10-10T12:23:41Z</time>
      </trkpt>
      <trkpt lat="43.72926" lon="1.67598">
        <ele>181.83</ele>
        <time>2019-10-10T12:23:43Z</time>
      </trkpt>
      <trkpt lat="43.72927" lon="1.67597">
        <ele>181.83</ele>
        <time>2019-10-10T12:23:44Z</time>
      </trkpt>
      <trkpt lat="43.72942" lon="1.67593">
        <ele>181.83</ele>
        <time>2019-10-10T12:23:58Z</time>
      </trkpt>
      <trkpt lat="43.72944" lon="1.67592">
        <ele>181.83</ele>
        <time>2019-10-10T12:23:59Z</time>
      </trkpt>
      <trkpt lat="43.72958" lon="1.67584">
        <ele>181.83</ele>
        <time>2019-10-10T12:24:14Z</time>
      </trkpt>
      <trkpt lat="43.7296" lon="1.67583">
        <ele>181.83</ele>
        <time>2019-10-10T12:24:15Z</time>
      </trkpt>
      <trkpt lat="43.72963" lon="1.6758">
        <ele>181.83</ele>
        <time>2019-10-10T12:24:19Z</time>
      </trkpt>
      <trkpt lat="43.72965" lon="1.67579">
        <ele>181.83</ele>
        <time>2019-10-10T12:24:20Z</time>
      </trkpt>
      <trkpt lat="43.72972" lon="1.67574">
        <ele>181.83</ele>
        <time>2019-10-10T12:24:29Z</time>
      </trkpt>
      <trkpt lat="43.72973" lon="1.67572">
        <ele>181.83</ele>
        <time>2019-10-10T12:24:30Z</time>
      </trkpt>
      <trkpt lat="43.72974" lon="1.67572">
        <ele>181.83</ele>
        <time>2019-10-10T12:24:31Z</time>
      </trkpt>
      <trkpt lat="43.72977" lon="1.6757">
        <ele>181.83</ele>
        <time>2019-10-10T12:24:34Z</time>
      </trkpt>
      <trkpt lat="43.7298" lon="1.67569">
        <ele>181.83</ele>
        <time>2019-10-10T12:24:38Z</time>
      </trkpt>
      <trkpt lat="43.72981" lon="1.67568">
        <ele>181.83</ele>
        <time>2019-10-10T12:24:39Z</time>
      </trkpt>
      <trkpt lat="43.72995" lon="1.67556">
        <ele>181.83</ele>
        <time>2019-10-10T12:24:54Z</time>
      </trkpt>
      <trkpt lat="43.73003" lon="1.67551">
        <ele>181.83</ele>
        <time>2019-10-10T12:25:03Z</time>
      </trkpt>
      <trkpt lat="43.73015" lon="1.67546">
        <ele>181.83</ele>
        <time>2019-10-10T12:25:14Z</time>
      </trkpt>
      <trkpt lat="43.73016" lon="1.67546">
        <ele>181.83</ele>
        <time>2019-10-10T12:25:15Z</time>
      </trkpt>
      <trkpt lat="43.73018" lon="1.67545">
        <ele>181.83</ele>
        <time>2019-10-10T12:25:17Z</time>
      </trkpt>
      <trkpt lat="43.73021" lon="1.67543">
        <ele>181.83</ele>
        <time>2019-10-10T12:25:20Z</time>
      </trkpt>
      <trkpt lat="43.73035" lon="1.67537">
        <ele>182.31</ele>
        <time>2019-10-10T12:25:34Z</time>
      </trkpt>
      <trkpt lat="43.73037" lon="1.67537">
        <ele>182.31</ele>
        <time>2019-10-10T12:25:36Z</time>
      </trkpt>
      <trkpt lat="43.73038" lon="1.67536">
        <ele>182.31</ele>
        <time>2019-10-10T12:25:37Z</time>
      </trkpt>
      <trkpt lat="43.73054" lon="1.67532">
        <ele>182.31</ele>
        <time>2019-10-10T12:25:51Z</time>
      </trkpt>
      <trkpt lat="43.73063" lon="1.67532">
        <ele>182.31</ele>
        <time>2019-10-10T12:25:58Z</time>
      </trkpt>
      <trkpt lat="43.73078" lon="1.67531">
        <ele>183.27</ele>
        <time>2019-10-10T12:26:10Z</time>
      </trkpt>
      <trkpt lat="43.73091" lon="1.67531">
        <ele>183.27</ele>
        <time>2019-10-10T12:26:21Z</time>
      </trkpt>
      <trkpt lat="43.73107" lon="1.67531">
        <ele>183.27</ele>
        <time>2019-10-10T12:26:34Z</time>
      </trkpt>
      <trkpt lat="43.73125" lon="1.67533">
        <ele>183.75</ele>
        <time>2019-10-10T12:26:49Z</time>
      </trkpt>
      <trkpt lat="43.73136" lon="1.67532">
        <ele>182.31</ele>
        <time>2019-10-10T12:27:00Z</time>
      </trkpt>
      <trkpt lat="43.73149" lon="1.67533">
        <ele>182.31</ele>
        <time>2019-10-10T12:27:11Z</time>
      </trkpt>
      <trkpt lat="43.73151" lon="1.67537">
        <ele>182.31</ele>
        <time>2019-10-10T12:27:15Z</time>
      </trkpt>
      <trkpt lat="43.73152" lon="1.67539">
        <ele>182.31</ele>
        <time>2019-10-10T12:27:16Z</time>
      </trkpt>
      <trkpt lat="43.73155" lon="1.67549">
        <ele>181.83</ele>
        <time>2019-10-10T12:27:24Z</time>
      </trkpt>
      <trkpt lat="43.73155" lon="1.67551">
        <ele>181.83</ele>
        <time>2019-10-10T12:27:25Z</time>
      </trkpt>
      <trkpt lat="43.73156" lon="1.67553">
        <ele>181.83</ele>
        <time>2019-10-10T12:27:26Z</time>
      </trkpt>
      <trkpt lat="43.73161" lon="1.67566">
        <ele>181.83</ele>
        <time>2019-10-10T12:27:36Z</time>
      </trkpt>
      <trkpt lat="43.73166" lon="1.67584">
        <ele>181.35</ele>
        <time>2019-10-10T12:27:48Z</time>
      </trkpt>
      <trkpt lat="43.73168" lon="1.67591">
        <ele>181.35</ele>
        <time>2019-10-10T12:27:53Z</time>
      </trkpt>
      <trkpt lat="43.73169" lon="1.67592">
        <ele>181.35</ele>
        <time>2019-10-10T12:27:54Z</time>
      </trkpt>
      <trkpt lat="43.73169" lon="1.67594">
        <ele>181.35</ele>
        <time>2019-10-10T12:27:55Z</time>
      </trkpt>
      <trkpt lat="43.73178" lon="1.67618">
        <ele>180.87</ele>
        <time>2019-10-10T12:28:13Z</time>
      </trkpt>
      <trkpt lat="43.73185" lon="1.67639">
        <ele>179.9</ele>
        <time>2019-10-10T12:28:29Z</time>
      </trkpt>
      <trkpt lat="43.7319" lon="1.67656">
        <ele>179.9</ele>
        <time>2019-10-10T12:28:41Z</time>
      </trkpt>
      <trkpt lat="43.73197" lon="1.67673">
        <ele>178.46</ele>
        <time>2019-10-10T12:28:53Z</time>
      </trkpt>
      <trkpt lat="43.73202" lon="1.67692">
        <ele>177.98</ele>
        <time>2019-10-10T12:29:05Z</time>
      </trkpt>
      <trkpt lat="43.73205" lon="1.67701">
        <ele>177.5</ele>
        <time>2019-10-10T12:29:11Z</time>
      </trkpt>
      <trkpt lat="43.73205" lon="1.67703">
        <ele>177.5</ele>
        <time>2019-10-10T12:29:12Z</time>
      </trkpt>
      <trkpt lat="43.73209" lon="1.6772">
        <ele>177.5</ele>
        <time>2019-10-10T12:29:23Z</time>
      </trkpt>
      <trkpt lat="43.73214" lon="1.67738">
        <ele>177.5</ele>
        <time>2019-10-10T12:29:34Z</time>
      </trkpt>
      <trkpt lat="43.73216" lon="1.67748">
        <ele>177.5</ele>
        <time>2019-10-10T12:29:40Z</time>
      </trkpt>
      <trkpt lat="43.73217" lon="1.67749">
        <ele>177.5</ele>
        <time>2019-10-10T12:29:41Z</time>
      </trkpt>
      <trkpt lat="43.7322" lon="1.6776">
        <ele>177.02</ele>
        <time>2019-10-10T12:29:49Z</time>
      </trkpt>
      <trkpt lat="43.7322" lon="1.67762">
        <ele>177.02</ele>
        <time>2019-10-10T12:29:50Z</time>
      </trkpt>
      <trkpt lat="43.73221" lon="1.67763">
        <ele>177.02</ele>
        <time>2019-10-10T12:29:51Z</time>
      </trkpt>
      <trkpt lat="43.73227" lon="1.6778">
        <ele>177.02</ele>
        <time>2019-10-10T12:30:02Z</time>
      </trkpt>
      <trkpt lat="43.73233" lon="1.67797">
        <ele>178.46</ele>
        <time>2019-10-10T12:30:14Z</time>
      </trkpt>
      <trkpt lat="43.73239" lon="1.6781">
        <ele>179.42</ele>
        <time>2019-10-10T12:30:24Z</time>
      </trkpt>
      <trkpt lat="43.73246" lon="1.67819">
        <ele>179.9</ele>
        <time>2019-10-10T12:30:32Z</time>
      </trkpt>
      <trkpt lat="43.73247" lon="1.67819">
        <ele>180.87</ele>
        <time>2019-10-10T12:30:33Z</time>
      </trkpt>
      <trkpt lat="43.73248" lon="1.6782">
        <ele>180.87</ele>
        <time>2019-10-10T12:30:34Z</time>
      </trkpt>
      <trkpt lat="43.73249" lon="1.67821">
        <ele>180.87</ele>
        <time>2019-10-10T12:30:36Z</time>
      </trkpt>
      <trkpt lat="43.73256" lon="1.67822">
        <ele>181.35</ele>
        <time>2019-10-10T12:30:46Z</time>
      </trkpt>
      <trkpt lat="43.73256" lon="1.67823">
        <ele>181.35</ele>
        <time>2019-10-10T12:30:52Z</time>
      </trkpt>
      <trkpt lat="43.73259" lon="1.67822">
        <ele>181.35</ele>
        <time>2019-10-10T12:30:56Z</time>
      </trkpt>
      <trkpt lat="43.73261" lon="1.67822">
        <ele>181.35</ele>
        <time>2019-10-10T12:30:57Z</time>
      </trkpt>
      <trkpt lat="43.73263" lon="1.67821">
        <ele>181.35</ele>
        <time>2019-10-10T12:31:00Z</time>
      </trkpt>
      <trkpt lat="43.73265" lon="1.67821">
        <ele>181.35</ele>
        <time>2019-10-10T12:31:01Z</time>
      </trkpt>
      <trkpt lat="43.73269" lon="1.67819">
        <ele>181.35</ele>
        <time>2019-10-10T12:31:06Z</time>
      </trkpt>
      <trkpt lat="43.73271" lon="1.67819">
        <ele>181.35</ele>
        <time>2019-10-10T12:31:08Z</time>
      </trkpt>
      <trkpt lat="43.73272" lon="1.67819">
        <ele>181.35</ele>
        <time>2019-10-10T12:31:09Z</time>
      </trkpt>
      <trkpt lat="43.73273" lon="1.67818">
        <ele>181.35</ele>
        <time>2019-10-10T12:31:10Z</time>
      </trkpt>
      <trkpt lat="43.73286" lon="1.67813">
        <ele>181.35</ele>
        <time>2019-10-10T12:31:22Z</time>
      </trkpt>
      <trkpt lat="43.73295" lon="1.67813">
        <ele>181.35</ele>
        <time>2019-10-10T12:31:29Z</time>
      </trkpt>
      <trkpt lat="43.73298" lon="1.67812">
        <ele>181.35</ele>
        <time>2019-10-10T12:31:32Z</time>
      </trkpt>
      <trkpt lat="43.7331" lon="1.67812">
        <ele>181.35</ele>
        <time>2019-10-10T12:31:43Z</time>
      </trkpt>
      <trkpt lat="43.73315" lon="1.67813">
        <ele>181.83</ele>
        <time>2019-10-10T12:31:47Z</time>
      </trkpt>
      <trkpt lat="43.73319" lon="1.67816">
        <ele>181.83</ele>
        <time>2019-10-10T12:31:54Z</time>
      </trkpt>
      <trkpt lat="43.7332" lon="1.67816">
        <ele>181.83</ele>
        <time>2019-10-10T12:31:55Z</time>
      </trkpt>
      <trkpt lat="43.73324" lon="1.67816">
        <ele>181.83</ele>
        <time>2019-10-10T12:31:59Z</time>
      </trkpt>
      <trkpt lat="43.73326" lon="1.67816">
        <ele>181.83</ele>
        <time>2019-10-10T12:32:02Z</time>
      </trkpt>
      <trkpt lat="43.73328" lon="1.67816">
        <ele>181.83</ele>
        <time>2019-10-10T12:32:03Z</time>
      </trkpt>
      <trkpt lat="43.7333" lon="1.67815">
        <ele>181.83</ele>
        <time>2019-10-10T12:32:06Z</time>
      </trkpt>
      <trkpt lat="43.73332" lon="1.67815">
        <ele>181.83</ele>
        <time>2019-10-10T12:32:07Z</time>
      </trkpt>
      <trkpt lat="43.73333" lon="1.67816">
        <ele>181.83</ele>
        <time>2019-10-10T12:32:08Z</time>
      </trkpt>
      <trkpt lat="43.7334" lon="1.67816">
        <ele>181.83</ele>
        <time>2019-10-10T12:32:14Z</time>
      </trkpt>
      <trkpt lat="43.73349" lon="1.67816">
        <ele>180.38</ele>
        <time>2019-10-10T12:32:22Z</time>
      </trkpt>
      <trkpt lat="43.73351" lon="1.67817">
        <ele>180.38</ele>
        <time>2019-10-10T12:32:24Z</time>
      </trkpt>
      <trkpt lat="43.73368" lon="1.67823">
        <ele>179.42</ele>
        <time>2019-10-10T12:32:41Z</time>
      </trkpt>
      <trkpt lat="43.73374" lon="1.6782">
        <ele>179.42</ele>
        <time>2019-10-10T12:32:48Z</time>
      </trkpt>
      <trkpt lat="43.73384" lon="1.67814">
        <ele>178.94</ele>
        <time>2019-10-10T12:32:58Z</time>
      </trkpt>
      <trkpt lat="43.73386" lon="1.67813">
        <ele>178.94</ele>
        <time>2019-10-10T12:32:59Z</time>
      </trkpt>
      <trkpt lat="43.73394" lon="1.67806">
        <ele>178.46</ele>
        <time>2019-10-10T12:33:08Z</time>
      </trkpt>
      <trkpt lat="43.73404" lon="1.678">
        <ele>177.98</ele>
        <time>2019-10-10T12:33:18Z</time>
      </trkpt>
      <trkpt lat="43.73405" lon="1.67799">
        <ele>177.98</ele>
        <time>2019-10-10T12:33:19Z</time>
      </trkpt>
      <trkpt lat="43.73414" lon="1.67796">
        <ele>177.5</ele>
        <time>2019-10-10T12:33:27Z</time>
      </trkpt>
      <trkpt lat="43.73416" lon="1.67794">
        <ele>177.5</ele>
        <time>2019-10-10T12:33:29Z</time>
      </trkpt>
      <trkpt lat="43.73428" lon="1.67789">
        <ele>176.54</ele>
        <time>2019-10-10T12:33:40Z</time>
      </trkpt>
      <trkpt lat="43.73439" lon="1.67784">
        <ele>175.58</ele>
        <time>2019-10-10T12:33:50Z</time>
      </trkpt>
      <trkpt lat="43.73447" lon="1.67779">
        <ele>175.58</ele>
        <time>2019-10-10T12:33:58Z</time>
      </trkpt>
      <trkpt lat="43.73457" lon="1.67773">
        <ele>175.1</ele>
        <time>2019-10-10T12:34:07Z</time>
      </trkpt>
      <trkpt lat="43.73466" lon="1.67768">
        <ele>174.62</ele>
        <time>2019-10-10T12:34:16Z</time>
      </trkpt>
      <trkpt lat="43.73475" lon="1.67763">
        <ele>174.62</ele>
        <time>2019-10-10T12:34:25Z</time>
      </trkpt>
      <trkpt lat="43.73477" lon="1.67762">
        <ele>174.14</ele>
        <time>2019-10-10T12:34:27Z</time>
      </trkpt>
      <trkpt lat="43.73479" lon="1.6776">
        <ele>174.14</ele>
        <time>2019-10-10T12:34:30Z</time>
      </trkpt>
      <trkpt lat="43.73481" lon="1.6776">
        <ele>174.14</ele>
        <time>2019-10-10T12:34:31Z</time>
      </trkpt>
      <trkpt lat="43.73482" lon="1.6776">
        <ele>173.66</ele>
        <time>2019-10-10T12:34:32Z</time>
      </trkpt>
      <trkpt lat="43.73486" lon="1.67758">
        <ele>173.66</ele>
        <time>2019-10-10T12:34:37Z</time>
      </trkpt>
      <trkpt lat="43.73495" lon="1.67754">
        <ele>173.17</ele>
        <time>2019-10-10T12:34:46Z</time>
      </trkpt>
      <trkpt lat="43.73496" lon="1.67752">
        <ele>173.17</ele>
        <time>2019-10-10T12:34:48Z</time>
      </trkpt>
      <trkpt lat="43.73498" lon="1.67749">
        <ele>172.69</ele>
        <time>2019-10-10T12:34:51Z</time>
      </trkpt>
      <trkpt lat="43.73499" lon="1.67749">
        <ele>172.69</ele>
        <time>2019-10-10T12:34:52Z</time>
      </trkpt>
      <trkpt lat="43.73507" lon="1.67745">
        <ele>170.77</ele>
        <time>2019-10-10T12:35:06Z</time>
      </trkpt>
      <trkpt lat="43.73512" lon="1.67739">
        <ele>168.85</ele>
        <time>2019-10-10T12:35:19Z</time>
      </trkpt>
      <trkpt lat="43.73517" lon="1.67734">
        <ele>166.93</ele>
        <time>2019-10-10T12:35:35Z</time>
      </trkpt>
      <trkpt lat="43.73518" lon="1.67734">
        <ele>165.48</ele>
        <time>2019-10-10T12:35:48Z</time>
      </trkpt>
      <trkpt lat="43.73523" lon="1.6773">
        <ele>164.52</ele>
        <time>2019-10-10T12:36:02Z</time>
      </trkpt>
      <trkpt lat="43.73523" lon="1.67729">
        <ele>164.52</ele>
        <time>2019-10-10T12:36:14Z</time>
      </trkpt>
      <trkpt lat="43.73524" lon="1.6773">
        <ele>164.04</ele>
        <time>2019-10-10T12:36:36Z</time>
      </trkpt>
      <trkpt lat="43.73524" lon="1.6773">
        <ele>164.04</ele>
        <time>2019-10-10T12:37:00Z</time>
      </trkpt>
      <trkpt lat="43.73524" lon="1.6773">
        <ele>164.04</ele>
        <time>2019-10-10T12:37:23Z</time>
      </trkpt>
      <trkpt lat="43.73524" lon="1.67728">
        <ele>164.04</ele>
        <time>2019-10-10T12:37:35Z</time>
      </trkpt>
      <trkpt lat="43.73524" lon="1.67729">
        <ele>164.04</ele>
        <time>2019-10-10T12:37:49Z</time>
      </trkpt>
      <trkpt lat="43.73523" lon="1.6773">
        <ele>164.04</ele>
        <time>2019-10-10T12:38:09Z</time>
      </trkpt>
      <trkpt lat="43.73523" lon="1.67729">
        <ele>164.04</ele>
        <time>2019-10-10T12:38:16Z</time>
      </trkpt>
      <trkpt lat="43.73525" lon="1.67726">
        <ele>165.96</ele>
        <time>2019-10-10T12:38:28Z</time>
      </trkpt>
      <trkpt lat="43.73524" lon="1.67716">
        <ele>166.93</ele>
        <time>2019-10-10T12:38:36Z</time>
      </trkpt>
      <trkpt lat="43.73521" lon="1.67702">
        <ele>166.45</ele>
        <time>2019-10-10T12:38:47Z</time>
      </trkpt>
      <trkpt lat="43.73515" lon="1.67686">
        <ele>167.89</ele>
        <time>2019-10-10T12:39:01Z</time>
      </trkpt>
      <trkpt lat="43.73515" lon="1.67679">
        <ele>168.37</ele>
        <time>2019-10-10T12:39:06Z</time>
      </trkpt>
      <trkpt lat="43.73517" lon="1.6766">
        <ele>170.29</ele>
        <time>2019-10-10T12:39:21Z</time>
      </trkpt>
      <trkpt lat="43.73522" lon="1.67644">
        <ele>171.73</ele>
        <time>2019-10-10T12:39:34Z</time>
      </trkpt>
      <trkpt lat="43.73524" lon="1.67641">
        <ele>171.73</ele>
        <time>2019-10-10T12:39:37Z</time>
      </trkpt>
      <trkpt lat="43.7353" lon="1.67627">
        <ele>173.66</ele>
        <time>2019-10-10T12:39:51Z</time>
      </trkpt>
      <trkpt lat="43.73535" lon="1.67612">
        <ele>174.62</ele>
        <time>2019-10-10T12:40:03Z</time>
      </trkpt>
      <trkpt lat="43.73536" lon="1.67612">
        <ele>174.14</ele>
        <time>2019-10-10T12:40:10Z</time>
      </trkpt>
      <trkpt lat="43.73541" lon="1.67615">
        <ele>175.58</ele>
        <time>2019-10-10T12:40:16Z</time>
      </trkpt>
      <trkpt lat="43.73542" lon="1.67615">
        <ele>174.14</ele>
        <time>2019-10-10T12:40:18Z</time>
      </trkpt>
      <trkpt lat="43.73554" lon="1.67617">
        <ele>174.14</ele>
        <time>2019-10-10T12:40:28Z</time>
      </trkpt>
      <trkpt lat="43.73566" lon="1.6762">
        <ele>174.14</ele>
        <time>2019-10-10T12:40:40Z</time>
      </trkpt>
      <trkpt lat="43.73577" lon="1.67622">
        <ele>174.14</ele>
        <time>2019-10-10T12:40:49Z</time>
      </trkpt>
      <trkpt lat="43.73582" lon="1.67623">
        <ele>174.14</ele>
        <time>2019-10-10T12:40:53Z</time>
      </trkpt>
      <trkpt lat="43.73595" lon="1.67626">
        <ele>174.14</ele>
        <time>2019-10-10T12:41:05Z</time>
      </trkpt>
      <trkpt lat="43.73606" lon="1.67628">
        <ele>174.14</ele>
        <time>2019-10-10T12:41:15Z</time>
      </trkpt>
      <trkpt lat="43.73619" lon="1.67628">
        <ele>174.14</ele>
        <time>2019-10-10T12:41:27Z</time>
      </trkpt>
      <trkpt lat="43.73619" lon="1.67628">
        <ele>174.14</ele>
        <time>2019-10-10T12:41:28Z</time>
      </trkpt>
      <trkpt lat="43.73635" lon="1.67628">
        <ele>174.14</ele>
        <time>2019-10-10T12:41:43Z</time>
      </trkpt>
      <trkpt lat="43.73648" lon="1.67627">
        <ele>174.14</ele>
        <time>2019-10-10T12:41:53Z</time>
      </trkpt>
      <trkpt lat="43.73655" lon="1.67628">
        <ele>173.66</ele>
        <time>2019-10-10T12:41:59Z</time>
      </trkpt>
      <trkpt lat="43.73665" lon="1.67628">
        <ele>173.66</ele>
        <time>2019-10-10T12:42:07Z</time>
      </trkpt>
      <trkpt lat="43.73667" lon="1.67627">
        <ele>173.66</ele>
        <time>2019-10-10T12:42:09Z</time>
      </trkpt>
      <trkpt lat="43.73676" lon="1.67628">
        <ele>173.66</ele>
        <time>2019-10-10T12:42:17Z</time>
      </trkpt>
      <trkpt lat="43.73684" lon="1.67627">
        <ele>172.69</ele>
        <time>2019-10-10T12:42:24Z</time>
      </trkpt>
      <trkpt lat="43.73692" lon="1.67628">
        <ele>172.21</ele>
        <time>2019-10-10T12:42:32Z</time>
      </trkpt>
      <trkpt lat="43.73704" lon="1.67627">
        <ele>171.73</ele>
        <time>2019-10-10T12:42:42Z</time>
      </trkpt>
      <trkpt lat="43.73711" lon="1.67628">
        <ele>170.77</ele>
        <time>2019-10-10T12:42:48Z</time>
      </trkpt>
      <trkpt lat="43.73713" lon="1.67628">
        <ele>170.77</ele>
        <time>2019-10-10T12:42:49Z</time>
      </trkpt>
      <trkpt lat="43.73715" lon="1.67628">
        <ele>170.77</ele>
        <time>2019-10-10T12:42:50Z</time>
      </trkpt>
      <trkpt lat="43.73723" lon="1.67628">
        <ele>170.29</ele>
        <time>2019-10-10T12:42:58Z</time>
      </trkpt>
      <trkpt lat="43.73724" lon="1.67629">
        <ele>170.29</ele>
        <time>2019-10-10T12:42:59Z</time>
      </trkpt>
      <trkpt lat="43.73725" lon="1.67629">
        <ele>170.29</ele>
        <time>2019-10-10T12:43:00Z</time>
      </trkpt>
      <trkpt lat="43.73727" lon="1.6763">
        <ele>170.29</ele>
        <time>2019-10-10T12:43:01Z</time>
      </trkpt>
      <trkpt lat="43.73737" lon="1.67629">
        <ele>169.81</ele>
        <time>2019-10-10T12:43:10Z</time>
      </trkpt>
      <trkpt lat="43.73738" lon="1.67629">
        <ele>169.81</ele>
        <time>2019-10-10T12:43:11Z</time>
      </trkpt>
      <trkpt lat="43.7374" lon="1.6763">
        <ele>169.81</ele>
        <time>2019-10-10T12:43:12Z</time>
      </trkpt>
      <trkpt lat="43.73744" lon="1.67629">
        <ele>169.81</ele>
        <time>2019-10-10T12:43:16Z</time>
      </trkpt>
      <trkpt lat="43.73746" lon="1.67629">
        <ele>169.81</ele>
        <time>2019-10-10T12:43:17Z</time>
      </trkpt>
      <trkpt lat="43.73748" lon="1.67629">
        <ele>169.33</ele>
        <time>2019-10-10T12:43:18Z</time>
      </trkpt>
      <trkpt lat="43.73749" lon="1.6763">
        <ele>169.33</ele>
        <time>2019-10-10T12:43:19Z</time>
      </trkpt>
      <trkpt lat="43.73753" lon="1.6763">
        <ele>169.33</ele>
        <time>2019-10-10T12:43:23Z</time>
      </trkpt>
      <trkpt lat="43.73754" lon="1.6763">
        <ele>169.33</ele>
        <time>2019-10-10T12:43:24Z</time>
      </trkpt>
      <trkpt lat="43.73765" lon="1.6763">
        <ele>169.33</ele>
        <time>2019-10-10T12:43:34Z</time>
      </trkpt>
      <trkpt lat="43.73766" lon="1.67631">
        <ele>169.33</ele>
        <time>2019-10-10T12:43:35Z</time>
      </trkpt>
      <trkpt lat="43.73778" lon="1.67631">
        <ele>168.85</ele>
        <time>2019-10-10T12:43:45Z</time>
      </trkpt>
      <trkpt lat="43.73785" lon="1.67632">
        <ele>168.85</ele>
        <time>2019-10-10T12:43:51Z</time>
      </trkpt>
      <trkpt lat="43.73787" lon="1.67632">
        <ele>168.85</ele>
        <time>2019-10-10T12:43:52Z</time>
      </trkpt>
      <trkpt lat="43.73789" lon="1.67633">
        <ele>168.85</ele>
        <time>2019-10-10T12:43:53Z</time>
      </trkpt>
      <trkpt lat="43.7379" lon="1.67633">
        <ele>168.85</ele>
        <time>2019-10-10T12:43:54Z</time>
      </trkpt>
      <trkpt lat="43.73795" lon="1.67632">
        <ele>168.85</ele>
        <time>2019-10-10T12:43:58Z</time>
      </trkpt>
      <trkpt lat="43.73796" lon="1.67632">
        <ele>168.85</ele>
        <time>2019-10-10T12:43:59Z</time>
      </trkpt>
      <trkpt lat="43.73798" lon="1.67632">
        <ele>168.37</ele>
        <time>2019-10-10T12:44:00Z</time>
      </trkpt>
      <trkpt lat="43.738" lon="1.67632">
        <ele>168.37</ele>
        <time>2019-10-10T12:44:03Z</time>
      </trkpt>
      <trkpt lat="43.73801" lon="1.67632">
        <ele>168.37</ele>
        <time>2019-10-10T12:44:04Z</time>
      </trkpt>
      <trkpt lat="43.73803" lon="1.67632">
        <ele>168.37</ele>
        <time>2019-10-10T12:44:05Z</time>
      </trkpt>
      <trkpt lat="43.73813" lon="1.67632">
        <ele>168.37</ele>
        <time>2019-10-10T12:44:14Z</time>
      </trkpt>
      <trkpt lat="43.73819" lon="1.67632">
        <ele>168.37</ele>
        <time>2019-10-10T12:44:19Z</time>
      </trkpt>
      <trkpt lat="43.73821" lon="1.67632">
        <ele>168.37</ele>
        <time>2019-10-10T12:44:20Z</time>
      </trkpt>
      <trkpt lat="43.73823" lon="1.67633">
        <ele>168.37</ele>
        <time>2019-10-10T12:44:21Z</time>
      </trkpt>
      <trkpt lat="43.73834" lon="1.67633">
        <ele>168.37</ele>
        <time>2019-10-10T12:44:31Z</time>
      </trkpt>
      <trkpt lat="43.73845" lon="1.67634">
        <ele>168.37</ele>
        <time>2019-10-10T12:44:41Z</time>
      </trkpt>
      <trkpt lat="43.73855" lon="1.67634">
        <ele>167.89</ele>
        <time>2019-10-10T12:44:50Z</time>
      </trkpt>
      <trkpt lat="43.73859" lon="1.67635">
        <ele>167.89</ele>
        <time>2019-10-10T12:44:54Z</time>
      </trkpt>
      <trkpt lat="43.73861" lon="1.67635">
        <ele>167.89</ele>
        <time>2019-10-10T12:44:55Z</time>
      </trkpt>
      <trkpt lat="43.73862" lon="1.67635">
        <ele>167.89</ele>
        <time>2019-10-10T12:44:56Z</time>
      </trkpt>
      <trkpt lat="43.73872" lon="1.67635">
        <ele>167.41</ele>
        <time>2019-10-10T12:45:06Z</time>
      </trkpt>
      <trkpt lat="43.73881" lon="1.67635">
        <ele>167.41</ele>
        <time>2019-10-10T12:45:14Z</time>
      </trkpt>
      <trkpt lat="43.73904" lon="1.67636">
        <ele>168.85</ele>
        <time>2019-10-10T12:45:34Z</time>
      </trkpt>
      <trkpt lat="43.73918" lon="1.67637">
        <ele>168.85</ele>
        <time>2019-10-10T12:45:47Z</time>
      </trkpt>
      <trkpt lat="43.73931" lon="1.67635">
        <ele>168.85</ele>
        <time>2019-10-10T12:46:00Z</time>
      </trkpt>
      <trkpt lat="43.73932" lon="1.67636">
        <ele>168.85</ele>
        <time>2019-10-10T12:46:01Z</time>
      </trkpt>
      <trkpt lat="43.73935" lon="1.67635">
        <ele>168.85</ele>
        <time>2019-10-10T12:46:04Z</time>
      </trkpt>
      <trkpt lat="43.73954" lon="1.67634">
        <ele>168.85</ele>
        <time>2019-10-10T12:46:20Z</time>
      </trkpt>
      <trkpt lat="43.73962" lon="1.67634">
        <ele>168.85</ele>
        <time>2019-10-10T12:46:28Z</time>
      </trkpt>
      <trkpt lat="43.73963" lon="1.67633">
        <ele>168.85</ele>
        <time>2019-10-10T12:46:29Z</time>
      </trkpt>
      <trkpt lat="43.73973" lon="1.67632">
        <ele>168.85</ele>
        <time>2019-10-10T12:46:38Z</time>
      </trkpt>
      <trkpt lat="43.73974" lon="1.67632">
        <ele>168.85</ele>
        <time>2019-10-10T12:46:39Z</time>
      </trkpt>
      <trkpt lat="43.73988" lon="1.6763">
        <ele>168.37</ele>
        <time>2019-10-10T12:46:52Z</time>
      </trkpt>
      <trkpt lat="43.73992" lon="1.67627">
        <ele>168.37</ele>
        <time>2019-10-10T12:46:56Z</time>
      </trkpt>
      <trkpt lat="43.74008" lon="1.67629">
        <ele>168.37</ele>
        <time>2019-10-10T12:47:11Z</time>
      </trkpt>
      <trkpt lat="43.74013" lon="1.67627">
        <ele>168.37</ele>
        <time>2019-10-10T12:47:15Z</time>
      </trkpt>
      <trkpt lat="43.74014" lon="1.67626">
        <ele>168.37</ele>
        <time>2019-10-10T12:47:16Z</time>
      </trkpt>
      <trkpt lat="43.74015" lon="1.67626">
        <ele>168.37</ele>
        <time>2019-10-10T12:47:17Z</time>
      </trkpt>
      <trkpt lat="43.74016" lon="1.67625">
        <ele>168.37</ele>
        <time>2019-10-10T12:47:18Z</time>
      </trkpt>
      <trkpt lat="43.74018" lon="1.67625">
        <ele>168.37</ele>
        <time>2019-10-10T12:47:22Z</time>
      </trkpt>
      <trkpt lat="43.74021" lon="1.67625">
        <ele>168.37</ele>
        <time>2019-10-10T12:47:25Z</time>
      </trkpt>
      <trkpt lat="43.74022" lon="1.67625">
        <ele>168.37</ele>
        <time>2019-10-10T12:47:26Z</time>
      </trkpt>
      <trkpt lat="43.74034" lon="1.67625">
        <ele>168.37</ele>
        <time>2019-10-10T12:47:36Z</time>
      </trkpt>
      <trkpt lat="43.74044" lon="1.67624">
        <ele>168.37</ele>
        <time>2019-10-10T12:47:45Z</time>
      </trkpt>
      <trkpt lat="43.74045" lon="1.67624">
        <ele>167.41</ele>
        <time>2019-10-10T12:47:46Z</time>
      </trkpt>
      <trkpt lat="43.74046" lon="1.67624">
        <ele>167.41</ele>
        <time>2019-10-10T12:47:47Z</time>
      </trkpt>
      <trkpt lat="43.74048" lon="1.67624">
        <ele>167.41</ele>
        <time>2019-10-10T12:47:48Z</time>
      </trkpt>
      <trkpt lat="43.74049" lon="1.67623">
        <ele>167.41</ele>
        <time>2019-10-10T12:47:49Z</time>
      </trkpt>
      <trkpt lat="43.7405" lon="1.67623">
        <ele>167.89</ele>
        <time>2019-10-10T12:47:50Z</time>
      </trkpt>
      <trkpt lat="43.74052" lon="1.67622">
        <ele>168.85</ele>
        <time>2019-10-10T12:47:52Z</time>
      </trkpt>
      <trkpt lat="43.7407" lon="1.6762">
        <ele>168.85</ele>
        <time>2019-10-10T12:48:08Z</time>
      </trkpt>
      <trkpt lat="43.74087" lon="1.6762">
        <ele>168.85</ele>
        <time>2019-10-10T12:48:23Z</time>
      </trkpt>
      <trkpt lat="43.74099" lon="1.6762">
        <ele>167.41</ele>
        <time>2019-10-10T12:48:33Z</time>
      </trkpt>
      <trkpt lat="43.74116" lon="1.67619">
        <ele>167.41</ele>
        <time>2019-10-10T12:48:47Z</time>
      </trkpt>
      <trkpt lat="43.74134" lon="1.67619">
        <ele>166.45</ele>
        <time>2019-10-10T12:49:04Z</time>
      </trkpt>
      <trkpt lat="43.74146" lon="1.67618">
        <ele>165.96</ele>
        <time>2019-10-10T12:49:15Z</time>
      </trkpt>
      <trkpt lat="43.74148" lon="1.67618">
        <ele>165.96</ele>
        <time>2019-10-10T12:49:16Z</time>
      </trkpt>
      <trkpt lat="43.74149" lon="1.67618">
        <ele>165.96</ele>
        <time>2019-10-10T12:49:17Z</time>
      </trkpt>
      <trkpt lat="43.74151" lon="1.67618">
        <ele>165.48</ele>
        <time>2019-10-10T12:49:18Z</time>
      </trkpt>
      <trkpt lat="43.7416" lon="1.67619">
        <ele>164.52</ele>
        <time>2019-10-10T12:49:27Z</time>
      </trkpt>
      <trkpt lat="43.74177" lon="1.67618">
        <ele>163.08</ele>
        <time>2019-10-10T12:49:43Z</time>
      </trkpt>
      <trkpt lat="43.74195" lon="1.67618">
        <ele>162.12</ele>
        <time>2019-10-10T12:49:58Z</time>
      </trkpt>
      <trkpt lat="43.74206" lon="1.67619">
        <ele>160.68</ele>
        <time>2019-10-10T12:50:08Z</time>
      </trkpt>
      <trkpt lat="43.74219" lon="1.6762">
        <ele>159.72</ele>
        <time>2019-10-10T12:50:20Z</time>
      </trkpt>
      <trkpt lat="43.7422" lon="1.6762">
        <ele>159.72</ele>
        <time>2019-10-10T12:50:21Z</time>
      </trkpt>
      <trkpt lat="43.74221" lon="1.6762">
        <ele>159.72</ele>
        <time>2019-10-10T12:50:22Z</time>
      </trkpt>
      <trkpt lat="43.74227" lon="1.6762">
        <ele>159.72</ele>
        <time>2019-10-10T12:50:27Z</time>
      </trkpt>
      <trkpt lat="43.74228" lon="1.6762">
        <ele>159.24</ele>
        <time>2019-10-10T12:50:28Z</time>
      </trkpt>
      <trkpt lat="43.7423" lon="1.6762">
        <ele>159.24</ele>
        <time>2019-10-10T12:50:29Z</time>
      </trkpt>
      <trkpt lat="43.74234" lon="1.6762">
        <ele>158.75</ele>
        <time>2019-10-10T12:50:33Z</time>
      </trkpt>
      <trkpt lat="43.74235" lon="1.6762">
        <ele>158.75</ele>
        <time>2019-10-10T12:50:34Z</time>
      </trkpt>
      <trkpt lat="43.74243" lon="1.6762">
        <ele>158.75</ele>
        <time>2019-10-10T12:50:41Z</time>
      </trkpt>
      <trkpt lat="43.74245" lon="1.67619">
        <ele>158.75</ele>
        <time>2019-10-10T12:50:43Z</time>
      </trkpt>
      <trkpt lat="43.74248" lon="1.6762">
        <ele>158.27</ele>
        <time>2019-10-10T12:50:47Z</time>
      </trkpt>
      <trkpt lat="43.7425" lon="1.67621">
        <ele>158.27</ele>
        <time>2019-10-10T12:50:48Z</time>
      </trkpt>
      <trkpt lat="43.74266" lon="1.67622">
        <ele>157.31</ele>
        <time>2019-10-10T12:51:01Z</time>
      </trkpt>
      <trkpt lat="43.74282" lon="1.67624">
        <ele>156.35</ele>
        <time>2019-10-10T12:51:14Z</time>
      </trkpt>
      <trkpt lat="43.74292" lon="1.67625">
        <ele>156.35</ele>
        <time>2019-10-10T12:51:23Z</time>
      </trkpt>
      <trkpt lat="43.74311" lon="1.67626">
        <ele>155.39</ele>
        <time>2019-10-10T12:51:39Z</time>
      </trkpt>
      <trkpt lat="43.74322" lon="1.67629">
        <ele>155.39</ele>
        <time>2019-10-10T12:51:49Z</time>
      </trkpt>
      <trkpt lat="43.74333" lon="1.6763">
        <ele>154.43</ele>
        <time>2019-10-10T12:51:59Z</time>
      </trkpt>
      <trkpt lat="43.74334" lon="1.67631">
        <ele>154.43</ele>
        <time>2019-10-10T12:52:00Z</time>
      </trkpt>
      <trkpt lat="43.74336" lon="1.67631">
        <ele>154.43</ele>
        <time>2019-10-10T12:52:01Z</time>
      </trkpt>
      <trkpt lat="43.74337" lon="1.67631">
        <ele>154.43</ele>
        <time>2019-10-10T12:52:02Z</time>
      </trkpt>
      <trkpt lat="43.74338" lon="1.67631">
        <ele>154.43</ele>
        <time>2019-10-10T12:52:03Z</time>
      </trkpt>
      <trkpt lat="43.74341" lon="1.67632">
        <ele>154.43</ele>
        <time>2019-10-10T12:52:06Z</time>
      </trkpt>
      <trkpt lat="43.74343" lon="1.67632">
        <ele>154.43</ele>
        <time>2019-10-10T12:52:07Z</time>
      </trkpt>
      <trkpt lat="43.74345" lon="1.67632">
        <ele>153.95</ele>
        <time>2019-10-10T12:52:08Z</time>
      </trkpt>
      <trkpt lat="43.74346" lon="1.67632">
        <ele>153.95</ele>
        <time>2019-10-10T12:52:09Z</time>
      </trkpt>
      <trkpt lat="43.74362" lon="1.67633">
        <ele>153.95</ele>
        <time>2019-10-10T12:52:24Z</time>
      </trkpt>
      <trkpt lat="43.74375" lon="1.67634">
        <ele>153.47</ele>
        <time>2019-10-10T12:52:36Z</time>
      </trkpt>
      <trkpt lat="43.74377" lon="1.67635">
        <ele>152.99</ele>
        <time>2019-10-10T12:52:37Z</time>
      </trkpt>
      <trkpt lat="43.74378" lon="1.67635">
        <ele>152.99</ele>
        <time>2019-10-10T12:52:38Z</time>
      </trkpt>
      <trkpt lat="43.7438" lon="1.67635">
        <ele>152.99</ele>
        <time>2019-10-10T12:52:39Z</time>
      </trkpt>
      <trkpt lat="43.74393" lon="1.67638">
        <ele>152.51</ele>
        <time>2019-10-10T12:52:50Z</time>
      </trkpt>
      <trkpt lat="43.74395" lon="1.67638">
        <ele>152.03</ele>
        <time>2019-10-10T12:52:53Z</time>
      </trkpt>
      <trkpt lat="43.74397" lon="1.67638">
        <ele>152.03</ele>
        <time>2019-10-10T12:52:54Z</time>
      </trkpt>
      <trkpt lat="43.744" lon="1.67639">
        <ele>152.03</ele>
        <time>2019-10-10T12:52:56Z</time>
      </trkpt>
      <trkpt lat="43.74405" lon="1.67639">
        <ele>152.03</ele>
        <time>2019-10-10T12:53:01Z</time>
      </trkpt>
      <trkpt lat="43.74406" lon="1.6764">
        <ele>152.03</ele>
        <time>2019-10-10T12:53:02Z</time>
      </trkpt>
      <trkpt lat="43.74416" lon="1.67641">
        <ele>151.54</ele>
        <time>2019-10-10T12:53:12Z</time>
      </trkpt>
      <trkpt lat="43.74417" lon="1.67641">
        <ele>151.54</ele>
        <time>2019-10-10T12:53:13Z</time>
      </trkpt>
      <trkpt lat="43.74419" lon="1.67641">
        <ele>151.54</ele>
        <time>2019-10-10T12:53:14Z</time>
      </trkpt>
      <trkpt lat="43.7443" lon="1.67641">
        <ele>151.06</ele>
        <time>2019-10-10T12:53:23Z</time>
      </trkpt>
      <trkpt lat="43.74445" lon="1.67642">
        <ele>150.58</ele>
        <time>2019-10-10T12:53:36Z</time>
      </trkpt>
      <trkpt lat="43.74446" lon="1.67642">
        <ele>150.1</ele>
        <time>2019-10-10T12:53:37Z</time>
      </trkpt>
      <trkpt lat="43.74447" lon="1.67642">
        <ele>150.1</ele>
        <time>2019-10-10T12:53:38Z</time>
      </trkpt>
      <trkpt lat="43.74452" lon="1.67642">
        <ele>150.1</ele>
        <time>2019-10-10T12:53:43Z</time>
      </trkpt>
      <trkpt lat="43.74454" lon="1.67642">
        <ele>150.1</ele>
        <time>2019-10-10T12:53:44Z</time>
      </trkpt>
      <trkpt lat="43.74455" lon="1.67642">
        <ele>150.1</ele>
        <time>2019-10-10T12:53:45Z</time>
      </trkpt>
      <trkpt lat="43.74467" lon="1.67643">
        <ele>149.14</ele>
        <time>2019-10-10T12:53:57Z</time>
      </trkpt>
      <trkpt lat="43.74475" lon="1.6764">
        <ele>149.14</ele>
        <time>2019-10-10T12:54:02Z</time>
      </trkpt>
      <trkpt lat="43.74478" lon="1.67638">
        <ele>148.66</ele>
        <time>2019-10-10T12:54:06Z</time>
      </trkpt>
      <trkpt lat="43.74485" lon="1.67632">
        <ele>148.66</ele>
        <time>2019-10-10T12:54:13Z</time>
      </trkpt>
      <trkpt lat="43.74487" lon="1.67627">
        <ele>148.18</ele>
        <time>2019-10-10T12:54:17Z</time>
      </trkpt>
      <trkpt lat="43.74487" lon="1.67621">
        <ele>148.18</ele>
        <time>2019-10-10T12:54:21Z</time>
      </trkpt>
      <trkpt lat="43.74487" lon="1.6762">
        <ele>148.18</ele>
        <time>2019-10-10T12:54:22Z</time>
      </trkpt>
      <trkpt lat="43.74485" lon="1.67607">
        <ele>149.14</ele>
        <time>2019-10-10T12:54:31Z</time>
      </trkpt>
      <trkpt lat="43.74481" lon="1.67593">
        <ele>150.1</ele>
        <time>2019-10-10T12:54:41Z</time>
      </trkpt>
      <trkpt lat="43.74477" lon="1.67577">
        <ele>150.58</ele>
        <time>2019-10-10T12:54:52Z</time>
      </trkpt>
      <trkpt lat="43.74474" lon="1.67567">
        <ele>151.54</ele>
        <time>2019-10-10T12:55:00Z</time>
      </trkpt>
      <trkpt lat="43.74474" lon="1.67565">
        <ele>151.54</ele>
        <time>2019-10-10T12:55:01Z</time>
      </trkpt>
      <trkpt lat="43.74469" lon="1.67553">
        <ele>151.54</ele>
        <time>2019-10-10T12:55:10Z</time>
      </trkpt>
      <trkpt lat="43.74469" lon="1.6755">
        <ele>151.54</ele>
        <time>2019-10-10T12:55:12Z</time>
      </trkpt>
      <trkpt lat="43.74469" lon="1.67549">
        <ele>152.51</ele>
        <time>2019-10-10T12:55:13Z</time>
      </trkpt>
      <trkpt lat="43.74464" lon="1.67537">
        <ele>152.51</ele>
        <time>2019-10-10T12:55:22Z</time>
      </trkpt>
      <trkpt lat="43.74462" lon="1.6753">
        <ele>152.51</ele>
        <time>2019-10-10T12:55:27Z</time>
      </trkpt>
      <trkpt lat="43.74461" lon="1.67528">
        <ele>152.51</ele>
        <time>2019-10-10T12:55:28Z</time>
      </trkpt>
      <trkpt lat="43.74461" lon="1.67527">
        <ele>152.51</ele>
        <time>2019-10-10T12:55:29Z</time>
      </trkpt>
      <trkpt lat="43.74459" lon="1.67523">
        <ele>152.51</ele>
        <time>2019-10-10T12:55:32Z</time>
      </trkpt>
      <trkpt lat="43.74458" lon="1.67522">
        <ele>152.51</ele>
        <time>2019-10-10T12:55:33Z</time>
      </trkpt>
      <trkpt lat="43.74457" lon="1.67519">
        <ele>152.51</ele>
        <time>2019-10-10T12:55:36Z</time>
      </trkpt>
      <trkpt lat="43.74456" lon="1.67518">
        <ele>152.51</ele>
        <time>2019-10-10T12:55:37Z</time>
      </trkpt>
      <trkpt lat="43.74452" lon="1.67506">
        <ele>152.51</ele>
        <time>2019-10-10T12:55:47Z</time>
      </trkpt>
      <trkpt lat="43.74446" lon="1.67495">
        <ele>152.51</ele>
        <time>2019-10-10T12:55:56Z</time>
      </trkpt>
      <trkpt lat="43.74446" lon="1.67494">
        <ele>152.51</ele>
        <time>2019-10-10T12:55:57Z</time>
      </trkpt>
      <trkpt lat="43.74445" lon="1.67492">
        <ele>152.51</ele>
        <time>2019-10-10T12:55:58Z</time>
      </trkpt>
      <trkpt lat="43.74438" lon="1.6748">
        <ele>152.51</ele>
        <time>2019-10-10T12:56:09Z</time>
      </trkpt>
      <trkpt lat="43.74437" lon="1.67479">
        <ele>152.51</ele>
        <time>2019-10-10T12:56:10Z</time>
      </trkpt>
      <trkpt lat="43.74432" lon="1.67469">
        <ele>152.51</ele>
        <time>2019-10-10T12:56:18Z</time>
      </trkpt>
      <trkpt lat="43.74426" lon="1.67457">
        <ele>153.47</ele>
        <time>2019-10-10T12:56:28Z</time>
      </trkpt>
      <trkpt lat="43.74423" lon="1.67452">
        <ele>153.47</ele>
        <time>2019-10-10T12:56:33Z</time>
      </trkpt>
      <trkpt lat="43.74422" lon="1.6745">
        <ele>153.47</ele>
        <time>2019-10-10T12:56:34Z</time>
      </trkpt>
      <trkpt lat="43.74416" lon="1.67438">
        <ele>153.47</ele>
        <time>2019-10-10T12:56:44Z</time>
      </trkpt>
      <trkpt lat="43.74416" lon="1.67437">
        <ele>153.47</ele>
        <time>2019-10-10T12:56:45Z</time>
      </trkpt>
      <trkpt lat="43.74415" lon="1.67435">
        <ele>153.47</ele>
        <time>2019-10-10T12:56:46Z</time>
      </trkpt>
      <trkpt lat="43.7441" lon="1.67423">
        <ele>153.47</ele>
        <time>2019-10-10T12:56:56Z</time>
      </trkpt>
      <trkpt lat="43.74409" lon="1.67422">
        <ele>153.47</ele>
        <time>2019-10-10T12:56:58Z</time>
      </trkpt>
      <trkpt lat="43.74408" lon="1.6742">
        <ele>153.47</ele>
        <time>2019-10-10T12:56:59Z</time>
      </trkpt>
      <trkpt lat="43.74407" lon="1.67417">
        <ele>153.47</ele>
        <time>2019-10-10T12:57:02Z</time>
      </trkpt>
      <trkpt lat="43.74406" lon="1.67415">
        <ele>153.47</ele>
        <time>2019-10-10T12:57:03Z</time>
      </trkpt>
      <trkpt lat="43.744" lon="1.67401">
        <ele>153.95</ele>
        <time>2019-10-10T12:57:14Z</time>
      </trkpt>
      <trkpt lat="43.74399" lon="1.67399">
        <ele>153.95</ele>
        <time>2019-10-10T12:57:15Z</time>
      </trkpt>
      <trkpt lat="43.74399" lon="1.67397">
        <ele>153.95</ele>
        <time>2019-10-10T12:57:16Z</time>
      </trkpt>
      <trkpt lat="43.74395" lon="1.67386">
        <ele>153.95</ele>
        <time>2019-10-10T12:57:25Z</time>
      </trkpt>
      <trkpt lat="43.7439" lon="1.67372">
        <ele>153.95</ele>
        <time>2019-10-10T12:57:36Z</time>
      </trkpt>
      <trkpt lat="43.74383" lon="1.67355">
        <ele>154.43</ele>
        <time>2019-10-10T12:57:49Z</time>
      </trkpt>
      <trkpt lat="43.74379" lon="1.67343">
        <ele>154.43</ele>
        <time>2019-10-10T12:57:58Z</time>
      </trkpt>
      <trkpt lat="43.74375" lon="1.67329">
        <ele>154.43</ele>
        <time>2019-10-10T12:58:09Z</time>
      </trkpt>
      <trkpt lat="43.74374" lon="1.67327">
        <ele>154.43</ele>
        <time>2019-10-10T12:58:10Z</time>
      </trkpt>
      <trkpt lat="43.74369" lon="1.67314">
        <ele>154.43</ele>
        <time>2019-10-10T12:58:19Z</time>
      </trkpt>
      <trkpt lat="43.74368" lon="1.67311">
        <ele>154.43</ele>
        <time>2019-10-10T12:58:22Z</time>
      </trkpt>
      <trkpt lat="43.74367" lon="1.6731">
        <ele>154.43</ele>
        <time>2019-10-10T12:58:23Z</time>
      </trkpt>
      <trkpt lat="43.74363" lon="1.67297">
        <ele>154.43</ele>
        <time>2019-10-10T12:58:33Z</time>
      </trkpt>
      <trkpt lat="43.74358" lon="1.67283">
        <ele>154.43</ele>
        <time>2019-10-10T12:58:43Z</time>
      </trkpt>
      <trkpt lat="43.74353" lon="1.6727">
        <ele>154.43</ele>
        <time>2019-10-10T12:58:53Z</time>
      </trkpt>
      <trkpt lat="43.74347" lon="1.67253">
        <ele>154.43</ele>
        <time>2019-10-10T12:59:04Z</time>
      </trkpt>
      <trkpt lat="43.74341" lon="1.67236">
        <ele>154.43</ele>
        <time>2019-10-10T12:59:16Z</time>
      </trkpt>
      <trkpt lat="43.74335" lon="1.67222">
        <ele>154.43</ele>
        <time>2019-10-10T12:59:27Z</time>
      </trkpt>
      <trkpt lat="43.74329" lon="1.67208">
        <ele>154.43</ele>
        <time>2019-10-10T12:59:38Z</time>
      </trkpt>
      <trkpt lat="43.74328" lon="1.67207">
        <ele>154.43</ele>
        <time>2019-10-10T12:59:39Z</time>
      </trkpt>
      <trkpt lat="43.74327" lon="1.67206">
        <ele>154.43</ele>
        <time>2019-10-10T12:59:40Z</time>
      </trkpt>
      <trkpt lat="43.7432" lon="1.67193">
        <ele>154.43</ele>
        <time>2019-10-10T12:59:50Z</time>
      </trkpt>
      <trkpt lat="43.74315" lon="1.67179">
        <ele>154.43</ele>
        <time>2019-10-10T13:00:00Z</time>
      </trkpt>
      <trkpt lat="43.74312" lon="1.67173">
        <ele>154.43</ele>
        <time>2019-10-10T13:00:04Z</time>
      </trkpt>
      <trkpt lat="43.74312" lon="1.67171">
        <ele>154.43</ele>
        <time>2019-10-10T13:00:05Z</time>
      </trkpt>
      <trkpt lat="43.74311" lon="1.6717">
        <ele>154.43</ele>
        <time>2019-10-10T13:00:06Z</time>
      </trkpt>
      <trkpt lat="43.74307" lon="1.67153">
        <ele>154.43</ele>
        <time>2019-10-10T13:00:17Z</time>
      </trkpt>
      <trkpt lat="43.74305" lon="1.67142">
        <ele>154.43</ele>
        <time>2019-10-10T13:00:24Z</time>
      </trkpt>
      <trkpt lat="43.74304" lon="1.67141">
        <ele>154.43</ele>
        <time>2019-10-10T13:00:25Z</time>
      </trkpt>
      <trkpt lat="43.74304" lon="1.67139">
        <ele>154.43</ele>
        <time>2019-10-10T13:00:26Z</time>
      </trkpt>
      <trkpt lat="43.74304" lon="1.67137">
        <ele>154.43</ele>
        <time>2019-10-10T13:00:27Z</time>
      </trkpt>
      <trkpt lat="43.74303" lon="1.6713">
        <ele>154.43</ele>
        <time>2019-10-10T13:00:31Z</time>
      </trkpt>
      <trkpt lat="43.74304" lon="1.67129">
        <ele>154.43</ele>
        <time>2019-10-10T13:00:32Z</time>
      </trkpt>
      <trkpt lat="43.74304" lon="1.67127">
        <ele>154.43</ele>
        <time>2019-10-10T13:00:33Z</time>
      </trkpt>
      <trkpt lat="43.74304" lon="1.67126">
        <ele>154.43</ele>
        <time>2019-10-10T13:00:34Z</time>
      </trkpt>
      <trkpt lat="43.74304" lon="1.67124">
        <ele>154.43</ele>
        <time>2019-10-10T13:00:35Z</time>
      </trkpt>
      <trkpt lat="43.74304" lon="1.67123">
        <ele>154.43</ele>
        <time>2019-10-10T13:00:36Z</time>
      </trkpt>
      <trkpt lat="43.74304" lon="1.67121">
        <ele>154.43</ele>
        <time>2019-10-10T13:00:37Z</time>
      </trkpt>
      <trkpt lat="43.74307" lon="1.6711">
        <ele>154.43</ele>
        <time>2019-10-10T13:00:46Z</time>
      </trkpt>
      <trkpt lat="43.74316" lon="1.67102">
        <ele>154.43</ele>
        <time>2019-10-10T13:00:58Z</time>
      </trkpt>
      <trkpt lat="43.74329" lon="1.67095">
        <ele>154.43</ele>
        <time>2019-10-10T13:01:10Z</time>
      </trkpt>
      <trkpt lat="43.74345" lon="1.67088">
        <ele>154.43</ele>
        <time>2019-10-10T13:01:25Z</time>
      </trkpt>
      <trkpt lat="43.74346" lon="1.67086">
        <ele>154.43</ele>
        <time>2019-10-10T13:01:27Z</time>
      </trkpt>
      <trkpt lat="43.74346" lon="1.67075">
        <ele>154.43</ele>
        <time>2019-10-10T13:01:35Z</time>
      </trkpt>
      <trkpt lat="43.74345" lon="1.67074">
        <ele>154.43</ele>
        <time>2019-10-10T13:01:36Z</time>
      </trkpt>
      <trkpt lat="43.74344" lon="1.67073">
        <ele>154.43</ele>
        <time>2019-10-10T13:01:37Z</time>
      </trkpt>
      <trkpt lat="43.74341" lon="1.6707">
        <ele>154.43</ele>
        <time>2019-10-10T13:01:41Z</time>
      </trkpt>
      <trkpt lat="43.74335" lon="1.67065">
        <ele>154.43</ele>
        <time>2019-10-10T13:01:48Z</time>
      </trkpt>
      <trkpt lat="43.74333" lon="1.67063">
        <ele>154.43</ele>
        <time>2019-10-10T13:01:50Z</time>
      </trkpt>
      <trkpt lat="43.74317" lon="1.6705">
        <ele>154.91</ele>
        <time>2019-10-10T13:02:06Z</time>
      </trkpt>
      <trkpt lat="43.74305" lon="1.67041">
        <ele>154.91</ele>
        <time>2019-10-10T13:02:19Z</time>
      </trkpt>
      <trkpt lat="43.74297" lon="1.67034">
        <ele>155.39</ele>
        <time>2019-10-10T13:02:28Z</time>
      </trkpt>
      <trkpt lat="43.74296" lon="1.67032">
        <ele>155.39</ele>
        <time>2019-10-10T13:02:29Z</time>
      </trkpt>
      <trkpt lat="43.74296" lon="1.67031">
        <ele>155.39</ele>
        <time>2019-10-10T13:02:30Z</time>
      </trkpt>
      <trkpt lat="43.74286" lon="1.67023">
        <ele>155.87</ele>
        <time>2019-10-10T13:02:41Z</time>
      </trkpt>
      <trkpt lat="43.74276" lon="1.67014">
        <ele>156.83</ele>
        <time>2019-10-10T13:02:53Z</time>
      </trkpt>
      <trkpt lat="43.7426" lon="1.67001">
        <ele>157.79</ele>
        <time>2019-10-10T13:03:09Z</time>
      </trkpt>
      <trkpt lat="43.74251" lon="1.66993">
        <ele>158.27</ele>
        <time>2019-10-10T13:03:19Z</time>
      </trkpt>
      <trkpt lat="43.74239" lon="1.66986">
        <ele>158.75</ele>
        <time>2019-10-10T13:03:32Z</time>
      </trkpt>
      <trkpt lat="43.74228" lon="1.66978">
        <ele>159.72</ele>
        <time>2019-10-10T13:03:45Z</time>
      </trkpt>
      <trkpt lat="43.74218" lon="1.66968">
        <ele>160.2</ele>
        <time>2019-10-10T13:03:57Z</time>
      </trkpt>
      <trkpt lat="43.74206" lon="1.66958">
        <ele>163.08</ele>
        <time>2019-10-10T13:04:13Z</time>
      </trkpt>
      <trkpt lat="43.74193" lon="1.66949">
        <ele>163.56</ele>
        <time>2019-10-10T13:04:28Z</time>
      </trkpt>
      <trkpt lat="43.74188" lon="1.66946">
        <ele>164.04</ele>
        <time>2019-10-10T13:04:33Z</time>
      </trkpt>
      <trkpt lat="43.74176" lon="1.66937">
        <ele>165.48</ele>
        <time>2019-10-10T13:04:47Z</time>
      </trkpt>
      <trkpt lat="43.74165" lon="1.66929">
        <ele>166.45</ele>
        <time>2019-10-10T13:04:59Z</time>
      </trkpt>
      <trkpt lat="43.7416" lon="1.66924">
        <ele>167.41</ele>
        <time>2019-10-10T13:05:04Z</time>
      </trkpt>
      <trkpt lat="43.7415" lon="1.66913">
        <ele>168.37</ele>
        <time>2019-10-10T13:05:16Z</time>
      </trkpt>
      <trkpt lat="43.74143" lon="1.66901">
        <ele>168.37</ele>
        <time>2019-10-10T13:05:28Z</time>
      </trkpt>
      <trkpt lat="43.74143" lon="1.66899">
        <ele>168.37</ele>
        <time>2019-10-10T13:05:29Z</time>
      </trkpt>
      <trkpt lat="43.74143" lon="1.66897">
        <ele>168.37</ele>
        <time>2019-10-10T13:05:30Z</time>
      </trkpt>
      <trkpt lat="43.74144" lon="1.66893">
        <ele>168.37</ele>
        <time>2019-10-10T13:05:33Z</time>
      </trkpt>
      <trkpt lat="43.74144" lon="1.66891">
        <ele>168.37</ele>
        <time>2019-10-10T13:05:34Z</time>
      </trkpt>
      <trkpt lat="43.74145" lon="1.6688">
        <ele>168.37</ele>
        <time>2019-10-10T13:05:42Z</time>
      </trkpt>
      <trkpt lat="43.74144" lon="1.66879">
        <ele>168.37</ele>
        <time>2019-10-10T13:05:43Z</time>
      </trkpt>
      <trkpt lat="43.74143" lon="1.66877">
        <ele>168.85</ele>
        <time>2019-10-10T13:05:45Z</time>
      </trkpt>
      <trkpt lat="43.7414" lon="1.66872">
        <ele>168.85</ele>
        <time>2019-10-10T13:05:49Z</time>
      </trkpt>
      <trkpt lat="43.74131" lon="1.6686">
        <ele>169.33</ele>
        <time>2019-10-10T13:06:01Z</time>
      </trkpt>
      <trkpt lat="43.74128" lon="1.66857">
        <ele>169.33</ele>
        <time>2019-10-10T13:06:05Z</time>
      </trkpt>
      <trkpt lat="43.74123" lon="1.6685">
        <ele>169.33</ele>
        <time>2019-10-10T13:06:12Z</time>
      </trkpt>
      <trkpt lat="43.74112" lon="1.66846">
        <ele>169.81</ele>
        <time>2019-10-10T13:06:23Z</time>
      </trkpt>
      <trkpt lat="43.74107" lon="1.66844">
        <ele>170.29</ele>
        <time>2019-10-10T13:06:28Z</time>
      </trkpt>
      <trkpt lat="43.74097" lon="1.66839">
        <ele>170.77</ele>
        <time>2019-10-10T13:06:39Z</time>
      </trkpt>
      <trkpt lat="43.74094" lon="1.66838">
        <ele>170.77</ele>
        <time>2019-10-10T13:06:45Z</time>
      </trkpt>
      <trkpt lat="43.74085" lon="1.66849">
        <ele>170.77</ele>
        <time>2019-10-10T13:06:57Z</time>
      </trkpt>
      <trkpt lat="43.74085" lon="1.6685">
        <ele>170.77</ele>
        <time>2019-10-10T13:06:58Z</time>
      </trkpt>
      <trkpt lat="43.74082" lon="1.66853">
        <ele>170.77</ele>
        <time>2019-10-10T13:07:02Z</time>
      </trkpt>
      <trkpt lat="43.7408" lon="1.66856">
        <ele>170.77</ele>
        <time>2019-10-10T13:07:05Z</time>
      </trkpt>
      <trkpt lat="43.74078" lon="1.66859">
        <ele>170.77</ele>
        <time>2019-10-10T13:07:09Z</time>
      </trkpt>
      <trkpt lat="43.74072" lon="1.66871">
        <ele>170.77</ele>
        <time>2019-10-10T13:07:19Z</time>
      </trkpt>
      <trkpt lat="43.74069" lon="1.66876">
        <ele>170.77</ele>
        <time>2019-10-10T13:07:23Z</time>
      </trkpt>
      <trkpt lat="43.74064" lon="1.66887">
        <ele>170.77</ele>
        <time>2019-10-10T13:07:32Z</time>
      </trkpt>
      <trkpt lat="43.74056" lon="1.66896">
        <ele>170.77</ele>
        <time>2019-10-10T13:07:42Z</time>
      </trkpt>
      <trkpt lat="43.74053" lon="1.66896">
        <ele>170.77</ele>
        <time>2019-10-10T13:07:46Z</time>
      </trkpt>
      <trkpt lat="43.74052" lon="1.66895">
        <ele>170.77</ele>
        <time>2019-10-10T13:07:47Z</time>
      </trkpt>
      <trkpt lat="43.74047" lon="1.66892">
        <ele>170.77</ele>
        <time>2019-10-10T13:07:53Z</time>
      </trkpt>
      <trkpt lat="43.74045" lon="1.6689">
        <ele>170.77</ele>
        <time>2019-10-10T13:07:56Z</time>
      </trkpt>
      <trkpt lat="43.74042" lon="1.66886">
        <ele>170.77</ele>
        <time>2019-10-10T13:08:02Z</time>
      </trkpt>
      <trkpt lat="43.74039" lon="1.66883">
        <ele>170.77</ele>
        <time>2019-10-10T13:08:06Z</time>
      </trkpt>
      <trkpt lat="43.74038" lon="1.66881">
        <ele>170.77</ele>
        <time>2019-10-10T13:08:07Z</time>
      </trkpt>
      <trkpt lat="43.74037" lon="1.6688">
        <ele>170.77</ele>
        <time>2019-10-10T13:08:09Z</time>
      </trkpt>
      <trkpt lat="43.74036" lon="1.66879">
        <ele>170.77</ele>
        <time>2019-10-10T13:08:10Z</time>
      </trkpt>
      <trkpt lat="43.74033" lon="1.66875">
        <ele>170.77</ele>
        <time>2019-10-10T13:08:16Z</time>
      </trkpt>
      <trkpt lat="43.74032" lon="1.66873">
        <ele>170.77</ele>
        <time>2019-10-10T13:08:19Z</time>
      </trkpt>
      <trkpt lat="43.74029" lon="1.66868">
        <ele>170.77</ele>
        <time>2019-10-10T13:08:25Z</time>
      </trkpt>
      <trkpt lat="43.74027" lon="1.66868">
        <ele>170.77</ele>
        <time>2019-10-10T13:08:26Z</time>
      </trkpt>
      <trkpt lat="43.74024" lon="1.66867">
        <ele>170.77</ele>
        <time>2019-10-10T13:08:29Z</time>
      </trkpt>
      <trkpt lat="43.74021" lon="1.66864">
        <ele>170.77</ele>
        <time>2019-10-10T13:08:33Z</time>
      </trkpt>
      <trkpt lat="43.74015" lon="1.66861">
        <ele>170.77</ele>
        <time>2019-10-10T13:08:39Z</time>
      </trkpt>
      <trkpt lat="43.74014" lon="1.6686">
        <ele>170.77</ele>
        <time>2019-10-10T13:08:40Z</time>
      </trkpt>
      <trkpt lat="43.7401" lon="1.66857">
        <ele>169.33</ele>
        <time>2019-10-10T13:08:45Z</time>
      </trkpt>
      <trkpt lat="43.74006" lon="1.66854">
        <ele>169.33</ele>
        <time>2019-10-10T13:08:50Z</time>
      </trkpt>
      <trkpt lat="43.74002" lon="1.66852">
        <ele>168.85</ele>
        <time>2019-10-10T13:08:54Z</time>
      </trkpt>
      <trkpt lat="43.74" lon="1.66849">
        <ele>168.85</ele>
        <time>2019-10-10T13:08:57Z</time>
      </trkpt>
      <trkpt lat="43.73999" lon="1.66848">
        <ele>168.85</ele>
        <time>2019-10-10T13:08:58Z</time>
      </trkpt>
      <trkpt lat="43.73999" lon="1.66843">
        <ele>168.85</ele>
        <time>2019-10-10T13:09:03Z</time>
      </trkpt>
      <trkpt lat="43.74" lon="1.66836">
        <ele>168.85</ele>
        <time>2019-10-10T13:09:10Z</time>
      </trkpt>
      <trkpt lat="43.74002" lon="1.66834">
        <ele>168.85</ele>
        <time>2019-10-10T13:09:13Z</time>
      </trkpt>
      <trkpt lat="43.74004" lon="1.6683">
        <ele>168.85</ele>
        <time>2019-10-10T13:09:17Z</time>
      </trkpt>
      <trkpt lat="43.74008" lon="1.66821">
        <ele>168.85</ele>
        <time>2019-10-10T13:09:25Z</time>
      </trkpt>
      <trkpt lat="43.74015" lon="1.66805">
        <ele>168.85</ele>
        <time>2019-10-10T13:09:39Z</time>
      </trkpt>
      <trkpt lat="43.7402" lon="1.66793">
        <ele>168.85</ele>
        <time>2019-10-10T13:09:52Z</time>
      </trkpt>
      <trkpt lat="43.74026" lon="1.66776">
        <ele>168.85</ele>
        <time>2019-10-10T13:10:05Z</time>
      </trkpt>
      <trkpt lat="43.74028" lon="1.66766">
        <ele>168.85</ele>
        <time>2019-10-10T13:10:18Z</time>
      </trkpt>
      <trkpt lat="43.74026" lon="1.66765">
        <ele>168.85</ele>
        <time>2019-10-10T13:10:38Z</time>
      </trkpt>
      <trkpt lat="43.74033" lon="1.66758">
        <ele>168.85</ele>
        <time>2019-10-10T13:10:50Z</time>
      </trkpt>
      <trkpt lat="43.74035" lon="1.66748">
        <ele>168.37</ele>
        <time>2019-10-10T13:10:57Z</time>
      </trkpt>
      <trkpt lat="43.74042" lon="1.66724">
        <ele>168.37</ele>
        <time>2019-10-10T13:11:15Z</time>
      </trkpt>
      <trkpt lat="43.74043" lon="1.66711">
        <ele>168.37</ele>
        <time>2019-10-10T13:11:25Z</time>
      </trkpt>
      <trkpt lat="43.74045" lon="1.66704">
        <ele>168.37</ele>
        <time>2019-10-10T13:11:30Z</time>
      </trkpt>
      <trkpt lat="43.74052" lon="1.66688">
        <ele>168.37</ele>
        <time>2019-10-10T13:11:43Z</time>
      </trkpt>
      <trkpt lat="43.74057" lon="1.66672">
        <ele>168.37</ele>
        <time>2019-10-10T13:11:55Z</time>
      </trkpt>
      <trkpt lat="43.74064" lon="1.66658">
        <ele>168.37</ele>
        <time>2019-10-10T13:12:05Z</time>
      </trkpt>
      <trkpt lat="43.74068" lon="1.66646">
        <ele>168.37</ele>
        <time>2019-10-10T13:12:14Z</time>
      </trkpt>
      <trkpt lat="43.74071" lon="1.66637">
        <ele>167.41</ele>
        <time>2019-10-10T13:12:26Z</time>
      </trkpt>
      <trkpt lat="43.74072" lon="1.66635">
        <ele>167.41</ele>
        <time>2019-10-10T13:13:02Z</time>
      </trkpt>
      <trkpt lat="43.74073" lon="1.66635">
        <ele>167.41</ele>
        <time>2019-10-10T13:13:27Z</time>
      </trkpt>
      <trkpt lat="43.74069" lon="1.66635">
        <ele>167.41</ele>
        <time>2019-10-10T13:13:53Z</time>
      </trkpt>
      <trkpt lat="43.74058" lon="1.66632">
        <ele>166.93</ele>
        <time>2019-10-10T13:14:09Z</time>
      </trkpt>
      <trkpt lat="43.74047" lon="1.66637">
        <ele>164.04</ele>
        <time>2019-10-10T13:14:27Z</time>
      </trkpt>
      <trkpt lat="43.74036" lon="1.66646">
        <ele>161.16</ele>
        <time>2019-10-10T13:14:43Z</time>
      </trkpt>
      <trkpt lat="43.74032" lon="1.6665">
        <ele>160.2</ele>
        <time>2019-10-10T13:14:58Z</time>
      </trkpt>
      <trkpt lat="43.7402" lon="1.66657">
        <ele>157.79</ele>
        <time>2019-10-10T13:15:15Z</time>
      </trkpt>
      <trkpt lat="43.74014" lon="1.66664">
        <ele>155.39</ele>
        <time>2019-10-10T13:15:28Z</time>
      </trkpt>
      <trkpt lat="43.74004" lon="1.66676">
        <ele>153.47</ele>
        <time>2019-10-10T13:15:45Z</time>
      </trkpt>
      <trkpt lat="43.73991" lon="1.6668">
        <ele>150.58</ele>
        <time>2019-10-10T13:16:01Z</time>
      </trkpt>
      <trkpt lat="43.73979" lon="1.66673">
        <ele>149.14</ele>
        <time>2019-10-10T13:16:17Z</time>
      </trkpt>
      <trkpt lat="43.73978" lon="1.66671">
        <ele>148.66</ele>
        <time>2019-10-10T13:16:20Z</time>
      </trkpt>
      <trkpt lat="43.7397" lon="1.66651">
        <ele>147.22</ele>
        <time>2019-10-10T13:16:36Z</time>
      </trkpt>
      <trkpt lat="43.73959" lon="1.66634">
        <ele>146.74</ele>
        <time>2019-10-10T13:16:53Z</time>
      </trkpt>
      <trkpt lat="43.73954" lon="1.66622">
        <ele>145.78</ele>
        <time>2019-10-10T13:17:09Z</time>
      </trkpt>
      <trkpt lat="43.73948" lon="1.66605">
        <ele>145.3</ele>
        <time>2019-10-10T13:17:20Z</time>
      </trkpt>
      <trkpt lat="43.73947" lon="1.66601">
        <ele>145.3</ele>
        <time>2019-10-10T13:17:23Z</time>
      </trkpt>
      <trkpt lat="43.73942" lon="1.66584">
        <ele>147.22</ele>
        <time>2019-10-10T13:17:39Z</time>
      </trkpt>
      <trkpt lat="43.73936" lon="1.66569">
        <ele>148.18</ele>
        <time>2019-10-10T13:17:53Z</time>
      </trkpt>
      <trkpt lat="43.73924" lon="1.66553">
        <ele>149.14</ele>
        <time>2019-10-10T13:18:09Z</time>
      </trkpt>
      <trkpt lat="43.73911" lon="1.66543">
        <ele>150.1</ele>
        <time>2019-10-10T13:18:24Z</time>
      </trkpt>
      <trkpt lat="43.73897" lon="1.66538">
        <ele>151.06</ele>
        <time>2019-10-10T13:18:41Z</time>
      </trkpt>
      <trkpt lat="43.73892" lon="1.66535">
        <ele>151.54</ele>
        <time>2019-10-10T13:18:49Z</time>
      </trkpt>
      <trkpt lat="43.73877" lon="1.66528">
        <ele>153.95</ele>
        <time>2019-10-10T13:19:08Z</time>
      </trkpt>
      <trkpt lat="43.73871" lon="1.66526">
        <ele>153.95</ele>
        <time>2019-10-10T13:19:16Z</time>
      </trkpt>
      <trkpt lat="43.7386" lon="1.66523">
        <ele>155.39</ele>
        <time>2019-10-10T13:19:28Z</time>
      </trkpt>
      <trkpt lat="43.73858" lon="1.66522">
        <ele>155.39</ele>
        <time>2019-10-10T13:19:31Z</time>
      </trkpt>
      <trkpt lat="43.73847" lon="1.66518">
        <ele>156.83</ele>
        <time>2019-10-10T13:19:44Z</time>
      </trkpt>
      <trkpt lat="43.73835" lon="1.66515">
        <ele>158.75</ele>
        <time>2019-10-10T13:19:58Z</time>
      </trkpt>
      <trkpt lat="43.73826" lon="1.66516">
        <ele>159.24</ele>
        <time>2019-10-10T13:20:07Z</time>
      </trkpt>
      <trkpt lat="43.73813" lon="1.66518">
        <ele>161.16</ele>
        <time>2019-10-10T13:20:21Z</time>
      </trkpt>
      <trkpt lat="43.73804" lon="1.6652">
        <ele>162.12</ele>
        <time>2019-10-10T13:20:31Z</time>
      </trkpt>
      <trkpt lat="43.73801" lon="1.66521">
        <ele>162.6</ele>
        <time>2019-10-10T13:20:34Z</time>
      </trkpt>
      <trkpt lat="43.73793" lon="1.66523">
        <ele>163.08</ele>
        <time>2019-10-10T13:20:42Z</time>
      </trkpt>
      <trkpt lat="43.73788" lon="1.66523">
        <ele>163.56</ele>
        <time>2019-10-10T13:20:46Z</time>
      </trkpt>
      <trkpt lat="43.73773" lon="1.66527">
        <ele>164.52</ele>
        <time>2019-10-10T13:21:00Z</time>
      </trkpt>
      <trkpt lat="43.73765" lon="1.6653">
        <ele>165.48</ele>
        <time>2019-10-10T13:21:12Z</time>
      </trkpt>
      <trkpt lat="43.73762" lon="1.66529">
        <ele>165.48</ele>
        <time>2019-10-10T13:21:32Z</time>
      </trkpt>
      <trkpt lat="43.73756" lon="1.66525">
        <ele>165.48</ele>
        <time>2019-10-10T13:21:39Z</time>
      </trkpt>
      <trkpt lat="43.73749" lon="1.66518">
        <ele>166.93</ele>
        <time>2019-10-10T13:21:48Z</time>
      </trkpt>
      <trkpt lat="43.7374" lon="1.66509">
        <ele>167.41</ele>
        <time>2019-10-10T13:21:58Z</time>
      </trkpt>
      <trkpt lat="43.73739" lon="1.66508">
        <ele>167.41</ele>
        <time>2019-10-10T13:22:00Z</time>
      </trkpt>
      <trkpt lat="43.73736" lon="1.66504">
        <ele>167.41</ele>
        <time>2019-10-10T13:22:04Z</time>
      </trkpt>
      <trkpt lat="43.73732" lon="1.66501">
        <ele>167.89</ele>
        <time>2019-10-10T13:22:08Z</time>
      </trkpt>
      <trkpt lat="43.73724" lon="1.66494">
        <ele>168.37</ele>
        <time>2019-10-10T13:22:18Z</time>
      </trkpt>
      <trkpt lat="43.73723" lon="1.66492">
        <ele>168.85</ele>
        <time>2019-10-10T13:22:29Z</time>
      </trkpt>
      <trkpt lat="43.73716" lon="1.66483">
        <ele>168.85</ele>
        <time>2019-10-10T13:22:41Z</time>
      </trkpt>
      <trkpt lat="43.73715" lon="1.66482">
        <ele>168.85</ele>
        <time>2019-10-10T13:22:44Z</time>
      </trkpt>
      <trkpt lat="43.73712" lon="1.6648">
        <ele>169.33</ele>
        <time>2019-10-10T13:22:48Z</time>
      </trkpt>
      <trkpt lat="43.73709" lon="1.66477">
        <ele>169.33</ele>
        <time>2019-10-10T13:22:51Z</time>
      </trkpt>
      <trkpt lat="43.73706" lon="1.66475">
        <ele>169.33</ele>
        <time>2019-10-10T13:22:54Z</time>
      </trkpt>
      <trkpt lat="43.73695" lon="1.66464">
        <ele>169.81</ele>
        <time>2019-10-10T13:23:07Z</time>
      </trkpt>
      <trkpt lat="43.73692" lon="1.66462">
        <ele>169.81</ele>
        <time>2019-10-10T13:23:10Z</time>
      </trkpt>
      <trkpt lat="43.7369" lon="1.66459">
        <ele>169.81</ele>
        <time>2019-10-10T13:23:15Z</time>
      </trkpt>
      <trkpt lat="43.73681" lon="1.66449">
        <ele>170.29</ele>
        <time>2019-10-10T13:23:26Z</time>
      </trkpt>
      <trkpt lat="43.73672" lon="1.6644">
        <ele>170.77</ele>
        <time>2019-10-10T13:23:37Z</time>
      </trkpt>
      <trkpt lat="43.73664" lon="1.66433">
        <ele>170.77</ele>
        <time>2019-10-10T13:23:47Z</time>
      </trkpt>
      <trkpt lat="43.73654" lon="1.66422">
        <ele>171.25</ele>
        <time>2019-10-10T13:23:58Z</time>
      </trkpt>
      <trkpt lat="43.73645" lon="1.66415">
        <ele>171.73</ele>
        <time>2019-10-10T13:24:08Z</time>
      </trkpt>
      <trkpt lat="43.73634" lon="1.66404">
        <ele>171.73</ele>
        <time>2019-10-10T13:24:21Z</time>
      </trkpt>
      <trkpt lat="43.73626" lon="1.66397">
        <ele>171.73</ele>
        <time>2019-10-10T13:24:30Z</time>
      </trkpt>
      <trkpt lat="43.73613" lon="1.66386">
        <ele>172.21</ele>
        <time>2019-10-10T13:24:44Z</time>
      </trkpt>
      <trkpt lat="43.73603" lon="1.66374">
        <ele>172.21</ele>
        <time>2019-10-10T13:24:57Z</time>
      </trkpt>
      <trkpt lat="43.73594" lon="1.66365">
        <ele>172.21</ele>
        <time>2019-10-10T13:25:08Z</time>
      </trkpt>
      <trkpt lat="43.73589" lon="1.66361">
        <ele>172.21</ele>
        <time>2019-10-10T13:25:19Z</time>
      </trkpt>
      <trkpt lat="43.7358" lon="1.66353">
        <ele>172.21</ele>
        <time>2019-10-10T13:25:29Z</time>
      </trkpt>
      <trkpt lat="43.7357" lon="1.66343">
        <ele>172.21</ele>
        <time>2019-10-10T13:25:41Z</time>
      </trkpt>
      <trkpt lat="43.73561" lon="1.66334">
        <ele>172.21</ele>
        <time>2019-10-10T13:25:52Z</time>
      </trkpt>
      <trkpt lat="43.73558" lon="1.66332">
        <ele>172.21</ele>
        <time>2019-10-10T13:25:55Z</time>
      </trkpt>
      <trkpt lat="43.73553" lon="1.66328">
        <ele>172.21</ele>
        <time>2019-10-10T13:26:02Z</time>
      </trkpt>
      <trkpt lat="43.7355" lon="1.66325">
        <ele>172.21</ele>
        <time>2019-10-10T13:26:06Z</time>
      </trkpt>
      <trkpt lat="43.73545" lon="1.66327">
        <ele>172.21</ele>
        <time>2019-10-10T13:26:11Z</time>
      </trkpt>
      <trkpt lat="43.73538" lon="1.66343">
        <ele>172.21</ele>
        <time>2019-10-10T13:26:23Z</time>
      </trkpt>
      <trkpt lat="43.73535" lon="1.66353">
        <ele>172.21</ele>
        <time>2019-10-10T13:26:34Z</time>
      </trkpt>
      <trkpt lat="43.73533" lon="1.66357">
        <ele>172.21</ele>
        <time>2019-10-10T13:26:46Z</time>
      </trkpt>
      <trkpt lat="43.73528" lon="1.6637">
        <ele>172.21</ele>
        <time>2019-10-10T13:27:01Z</time>
      </trkpt>
      <trkpt lat="43.73522" lon="1.66384">
        <ele>172.21</ele>
        <time>2019-10-10T13:27:11Z</time>
      </trkpt>
      <trkpt lat="43.73517" lon="1.66399">
        <ele>172.21</ele>
        <time>2019-10-10T13:27:22Z</time>
      </trkpt>
      <trkpt lat="43.73511" lon="1.66414">
        <ele>172.69</ele>
        <time>2019-10-10T13:27:33Z</time>
      </trkpt>
      <trkpt lat="43.73505" lon="1.66429">
        <ele>172.21</ele>
        <time>2019-10-10T13:27:44Z</time>
      </trkpt>
      <trkpt lat="43.73499" lon="1.66445">
        <ele>172.21</ele>
        <time>2019-10-10T13:27:55Z</time>
      </trkpt>
      <trkpt lat="43.73492" lon="1.66463">
        <ele>172.69</ele>
        <time>2019-10-10T13:28:08Z</time>
      </trkpt>
      <trkpt lat="43.73484" lon="1.6648">
        <ele>173.17</ele>
        <time>2019-10-10T13:28:22Z</time>
      </trkpt>
      <trkpt lat="43.73478" lon="1.66494">
        <ele>173.17</ele>
        <time>2019-10-10T13:28:33Z</time>
      </trkpt>
      <trkpt lat="43.73468" lon="1.66509">
        <ele>173.17</ele>
        <time>2019-10-10T13:28:46Z</time>
      </trkpt>
      <trkpt lat="43.73464" lon="1.66514">
        <ele>173.17</ele>
        <time>2019-10-10T13:28:51Z</time>
      </trkpt>
      <trkpt lat="43.73462" lon="1.66516">
        <ele>173.17</ele>
        <time>2019-10-10T13:28:54Z</time>
      </trkpt>
      <trkpt lat="43.73451" lon="1.66532">
        <ele>173.17</ele>
        <time>2019-10-10T13:29:07Z</time>
      </trkpt>
      <trkpt lat="43.73441" lon="1.66544">
        <ele>173.17</ele>
        <time>2019-10-10T13:29:19Z</time>
      </trkpt>
      <trkpt lat="43.73437" lon="1.66548">
        <ele>173.17</ele>
        <time>2019-10-10T13:29:23Z</time>
      </trkpt>
      <trkpt lat="43.73425" lon="1.66563">
        <ele>173.17</ele>
        <time>2019-10-10T13:29:38Z</time>
      </trkpt>
      <trkpt lat="43.73414" lon="1.66576">
        <ele>173.17</ele>
        <time>2019-10-10T13:29:51Z</time>
      </trkpt>
      <trkpt lat="43.73402" lon="1.6659">
        <ele>173.17</ele>
        <time>2019-10-10T13:30:05Z</time>
      </trkpt>
      <trkpt lat="43.7339" lon="1.66602">
        <ele>173.17</ele>
        <time>2019-10-10T13:30:17Z</time>
      </trkpt>
      <trkpt lat="43.73379" lon="1.66612">
        <ele>173.17</ele>
        <time>2019-10-10T13:30:29Z</time>
      </trkpt>
      <trkpt lat="43.7337" lon="1.6662">
        <ele>173.17</ele>
        <time>2019-10-10T13:30:39Z</time>
      </trkpt>
      <trkpt lat="43.73363" lon="1.6662">
        <ele>173.66</ele>
        <time>2019-10-10T13:30:45Z</time>
      </trkpt>
      <trkpt lat="43.73353" lon="1.66608">
        <ele>173.66</ele>
        <time>2019-10-10T13:30:58Z</time>
      </trkpt>
      <trkpt lat="43.73343" lon="1.66597">
        <ele>173.66</ele>
        <time>2019-10-10T13:31:11Z</time>
      </trkpt>
      <trkpt lat="43.73332" lon="1.66587">
        <ele>173.66</ele>
        <time>2019-10-10T13:31:23Z</time>
      </trkpt>
      <trkpt lat="43.73329" lon="1.66583">
        <ele>173.66</ele>
        <time>2019-10-10T13:31:27Z</time>
      </trkpt>
      <trkpt lat="43.73314" lon="1.6657">
        <ele>174.14</ele>
        <time>2019-10-10T13:31:43Z</time>
      </trkpt>
      <trkpt lat="43.733" lon="1.66559">
        <ele>174.14</ele>
        <time>2019-10-10T13:31:58Z</time>
      </trkpt>
      <trkpt lat="43.73295" lon="1.66556">
        <ele>174.14</ele>
        <time>2019-10-10T13:32:02Z</time>
      </trkpt>
      <trkpt lat="43.73292" lon="1.66554">
        <ele>172.69</ele>
        <time>2019-10-10T13:32:04Z</time>
      </trkpt>
      <trkpt lat="43.7329" lon="1.66552">
        <ele>172.69</ele>
        <time>2019-10-10T13:32:07Z</time>
      </trkpt>
      <trkpt lat="43.73281" lon="1.66548">
        <ele>172.69</ele>
        <time>2019-10-10T13:32:14Z</time>
      </trkpt>
      <trkpt lat="43.73262" lon="1.66538">
        <ele>172.21</ele>
        <time>2019-10-10T13:32:32Z</time>
      </trkpt>
      <trkpt lat="43.73245" lon="1.66532">
        <ele>172.21</ele>
        <time>2019-10-10T13:32:47Z</time>
      </trkpt>
      <trkpt lat="43.73232" lon="1.66528">
        <ele>171.25</ele>
        <time>2019-10-10T13:33:00Z</time>
      </trkpt>
      <trkpt lat="43.73215" lon="1.66523">
        <ele>171.25</ele>
        <time>2019-10-10T13:33:15Z</time>
      </trkpt>
      <trkpt lat="43.7321" lon="1.66522">
        <ele>170.77</ele>
        <time>2019-10-10T13:33:20Z</time>
      </trkpt>
      <trkpt lat="43.73193" lon="1.66517">
        <ele>170.29</ele>
        <time>2019-10-10T13:33:34Z</time>
      </trkpt>
      <trkpt lat="43.73181" lon="1.66511">
        <ele>171.73</ele>
        <time>2019-10-10T13:33:45Z</time>
      </trkpt>
      <trkpt lat="43.73164" lon="1.66503">
        <ele>171.73</ele>
        <time>2019-10-10T13:34:00Z</time>
      </trkpt>
      <trkpt lat="43.73149" lon="1.66497">
        <ele>172.21</ele>
        <time>2019-10-10T13:34:15Z</time>
      </trkpt>
      <trkpt lat="43.73131" lon="1.6649">
        <ele>172.21</ele>
        <time>2019-10-10T13:34:31Z</time>
      </trkpt>
      <trkpt lat="43.73128" lon="1.66488">
        <ele>172.21</ele>
        <time>2019-10-10T13:34:35Z</time>
      </trkpt>
      <trkpt lat="43.73115" lon="1.66483">
        <ele>172.69</ele>
        <time>2019-10-10T13:34:49Z</time>
      </trkpt>
      <trkpt lat="43.73114" lon="1.66483">
        <ele>172.69</ele>
        <time>2019-10-10T13:34:50Z</time>
      </trkpt>
      <trkpt lat="43.73104" lon="1.66478">
        <ele>173.17</ele>
        <time>2019-10-10T13:35:03Z</time>
      </trkpt>
      <trkpt lat="43.73093" lon="1.66475">
        <ele>173.66</ele>
        <time>2019-10-10T13:35:14Z</time>
      </trkpt>
      <trkpt lat="43.73079" lon="1.6647">
        <ele>174.14</ele>
        <time>2019-10-10T13:35:29Z</time>
      </trkpt>
      <trkpt lat="43.73077" lon="1.66475">
        <ele>174.62</ele>
        <time>2019-10-10T13:35:39Z</time>
      </trkpt>
      <trkpt lat="43.73077" lon="1.66476">
        <ele>174.62</ele>
        <time>2019-10-10T13:35:53Z</time>
      </trkpt>
      <trkpt lat="43.73077" lon="1.66475">
        <ele>174.62</ele>
        <time>2019-10-10T13:35:57Z</time>
      </trkpt>
      <trkpt lat="43.73076" lon="1.66477">
        <ele>174.62</ele>
        <time>2019-10-10T13:36:00Z</time>
      </trkpt>
      <trkpt lat="43.73074" lon="1.66489">
        <ele>175.1</ele>
        <time>2019-10-10T13:36:11Z</time>
      </trkpt>
      <trkpt lat="43.73071" lon="1.66507">
        <ele>175.58</ele>
        <time>2019-10-10T13:36:24Z</time>
      </trkpt>
      <trkpt lat="43.73067" lon="1.66527">
        <ele>175.58</ele>
        <time>2019-10-10T13:36:37Z</time>
      </trkpt>
      <trkpt lat="43.73064" lon="1.66542">
        <ele>175.58</ele>
        <time>2019-10-10T13:36:47Z</time>
      </trkpt>
      <trkpt lat="43.7306" lon="1.66559">
        <ele>176.06</ele>
        <time>2019-10-10T13:36:58Z</time>
      </trkpt>
      <trkpt lat="43.7306" lon="1.66561">
        <ele>177.02</ele>
        <time>2019-10-10T13:37:01Z</time>
      </trkpt>
      <trkpt lat="43.73055" lon="1.66579">
        <ele>177.02</ele>
        <time>2019-10-10T13:37:14Z</time>
      </trkpt>
      <trkpt lat="43.73051" lon="1.66596">
        <ele>177.98</ele>
        <time>2019-10-10T13:37:25Z</time>
      </trkpt>
      <trkpt lat="43.73047" lon="1.6661">
        <ele>178.46</ele>
        <time>2019-10-10T13:37:36Z</time>
      </trkpt>
      <trkpt lat="43.73043" lon="1.66625">
        <ele>178.94</ele>
        <time>2019-10-10T13:37:47Z</time>
      </trkpt>
      <trkpt lat="43.73038" lon="1.6664">
        <ele>179.9</ele>
        <time>2019-10-10T13:37:58Z</time>
      </trkpt>
      <trkpt lat="43.73037" lon="1.66642">
        <ele>180.38</ele>
        <time>2019-10-10T13:38:00Z</time>
      </trkpt>
      <trkpt lat="43.73033" lon="1.66656">
        <ele>180.87</ele>
        <time>2019-10-10T13:38:10Z</time>
      </trkpt>
      <trkpt lat="43.73029" lon="1.66669">
        <ele>181.35</ele>
        <time>2019-10-10T13:38:19Z</time>
      </trkpt>
      <trkpt lat="43.73028" lon="1.66676">
        <ele>181.83</ele>
        <time>2019-10-10T13:38:25Z</time>
      </trkpt>
      <trkpt lat="43.73024" lon="1.66692">
        <ele>182.31</ele>
        <time>2019-10-10T13:38:36Z</time>
      </trkpt>
      <trkpt lat="43.73024" lon="1.66692">
        <ele>182.31</ele>
        <time>2019-10-10T13:38:37Z</time>
      </trkpt>
      <trkpt lat="43.7302" lon="1.66703">
        <ele>183.27</ele>
        <time>2019-10-10T13:38:45Z</time>
      </trkpt>
      <trkpt lat="43.73019" lon="1.66708">
        <ele>183.27</ele>
        <time>2019-10-10T13:38:49Z</time>
      </trkpt>
      <trkpt lat="43.73017" lon="1.66714">
        <ele>183.75</ele>
        <time>2019-10-10T13:38:53Z</time>
      </trkpt>
      <trkpt lat="43.73016" lon="1.6672">
        <ele>184.23</ele>
        <time>2019-10-10T13:38:58Z</time>
      </trkpt>
      <trkpt lat="43.73013" lon="1.66736">
        <ele>185.67</ele>
        <time>2019-10-10T13:39:10Z</time>
      </trkpt>
      <trkpt lat="43.73008" lon="1.66754">
        <ele>186.63</ele>
        <time>2019-10-10T13:39:23Z</time>
      </trkpt>
      <trkpt lat="43.73004" lon="1.6677">
        <ele>187.11</ele>
        <time>2019-10-10T13:39:34Z</time>
      </trkpt>
      <trkpt lat="43.72998" lon="1.66784">
        <ele>187.59</ele>
        <time>2019-10-10T13:39:45Z</time>
      </trkpt>
      <trkpt lat="43.72993" lon="1.66798">
        <ele>188.08</ele>
        <time>2019-10-10T13:39:56Z</time>
      </trkpt>
      <trkpt lat="43.72987" lon="1.66813">
        <ele>189.04</ele>
        <time>2019-10-10T13:40:08Z</time>
      </trkpt>
      <trkpt lat="43.72983" lon="1.66825">
        <ele>190</ele>
        <time>2019-10-10T13:40:18Z</time>
      </trkpt>
      <trkpt lat="43.72976" lon="1.6684">
        <ele>190.96</ele>
        <time>2019-10-10T13:40:30Z</time>
      </trkpt>
      <trkpt lat="43.72976" lon="1.66841">
        <ele>190.96</ele>
        <time>2019-10-10T13:40:31Z</time>
      </trkpt>
      <trkpt lat="43.72969" lon="1.66856">
        <ele>191.92</ele>
        <time>2019-10-10T13:40:44Z</time>
      </trkpt>
      <trkpt lat="43.72962" lon="1.66872">
        <ele>193.36</ele>
        <time>2019-10-10T13:40:57Z</time>
      </trkpt>
      <trkpt lat="43.72956" lon="1.66887">
        <ele>193.84</ele>
        <time>2019-10-10T13:41:09Z</time>
      </trkpt>
      <trkpt lat="43.72951" lon="1.66901">
        <ele>194.8</ele>
        <time>2019-10-10T13:41:21Z</time>
      </trkpt>
      <trkpt lat="43.72944" lon="1.66915">
        <ele>195.77</ele>
        <time>2019-10-10T13:41:32Z</time>
      </trkpt>
      <trkpt lat="43.72938" lon="1.66925">
        <ele>196.73</ele>
        <time>2019-10-10T13:41:41Z</time>
      </trkpt>
      <trkpt lat="43.72936" lon="1.6693">
        <ele>197.21</ele>
        <time>2019-10-10T13:41:45Z</time>
      </trkpt>
      <trkpt lat="43.72927" lon="1.66944">
        <ele>198.17</ele>
        <time>2019-10-10T13:41:58Z</time>
      </trkpt>
      <trkpt lat="43.72927" lon="1.66945">
        <ele>198.65</ele>
        <time>2019-10-10T13:42:15Z</time>
      </trkpt>
      <trkpt lat="43.72922" lon="1.66952">
        <ele>198.65</ele>
        <time>2019-10-10T13:42:31Z</time>
      </trkpt>
      <trkpt lat="43.72918" lon="1.66956">
        <ele>198.65</ele>
        <time>2019-10-10T13:42:37Z</time>
      </trkpt>
      <trkpt lat="43.72915" lon="1.6696">
        <ele>199.13</ele>
        <time>2019-10-10T13:42:41Z</time>
      </trkpt>
      <trkpt lat="43.72905" lon="1.66972">
        <ele>200.09</ele>
        <time>2019-10-10T13:42:54Z</time>
      </trkpt>
      <trkpt lat="43.72897" lon="1.66982">
        <ele>200.09</ele>
        <time>2019-10-10T13:43:03Z</time>
      </trkpt>
      <trkpt lat="43.72888" lon="1.66994">
        <ele>200.09</ele>
        <time>2019-10-10T13:43:15Z</time>
      </trkpt>
      <trkpt lat="43.7288" lon="1.67002">
        <ele>201.05</ele>
        <time>2019-10-10T13:43:26Z</time>
      </trkpt>
      <trkpt lat="43.72869" lon="1.67012">
        <ele>201.05</ele>
        <time>2019-10-10T13:43:38Z</time>
      </trkpt>
      <trkpt lat="43.7286" lon="1.67018">
        <ele>201.05</ele>
        <time>2019-10-10T13:43:48Z</time>
      </trkpt>
      <trkpt lat="43.72857" lon="1.67019">
        <ele>201.05</ele>
        <time>2019-10-10T13:43:51Z</time>
      </trkpt>
      <trkpt lat="43.72855" lon="1.67021">
        <ele>199.61</ele>
        <time>2019-10-10T13:43:53Z</time>
      </trkpt>
      <trkpt lat="43.72844" lon="1.67028">
        <ele>199.13</ele>
        <time>2019-10-10T13:44:04Z</time>
      </trkpt>
      <trkpt lat="43.72835" lon="1.67031">
        <ele>198.17</ele>
        <time>2019-10-10T13:44:14Z</time>
      </trkpt>
      <trkpt lat="43.72834" lon="1.67031">
        <ele>198.17</ele>
        <time>2019-10-10T13:44:15Z</time>
      </trkpt>
      <trkpt lat="43.72823" lon="1.67038">
        <ele>197.69</ele>
        <time>2019-10-10T13:44:25Z</time>
      </trkpt>
      <trkpt lat="43.72813" lon="1.67043">
        <ele>197.69</ele>
        <time>2019-10-10T13:44:35Z</time>
      </trkpt>
      <trkpt lat="43.72807" lon="1.67047">
        <ele>197.21</ele>
        <time>2019-10-10T13:44:41Z</time>
      </trkpt>
      <trkpt lat="43.72802" lon="1.67051">
        <ele>197.21</ele>
        <time>2019-10-10T13:44:45Z</time>
      </trkpt>
      <trkpt lat="43.7279" lon="1.67058">
        <ele>195.77</ele>
        <time>2019-10-10T13:44:58Z</time>
      </trkpt>
      <trkpt lat="43.72785" lon="1.67062">
        <ele>195.77</ele>
        <time>2019-10-10T13:45:03Z</time>
      </trkpt>
      <trkpt lat="43.72772" lon="1.67072">
        <ele>195.77</ele>
        <time>2019-10-10T13:45:15Z</time>
      </trkpt>
      <trkpt lat="43.72771" lon="1.67083">
        <ele>196.73</ele>
        <time>2019-10-10T13:45:27Z</time>
      </trkpt>
      <trkpt lat="43.72783" lon="1.671">
        <ele>197.69</ele>
        <time>2019-10-10T13:45:45Z</time>
      </trkpt>
      <trkpt lat="43.72789" lon="1.67111">
        <ele>197.21</ele>
        <time>2019-10-10T13:45:54Z</time>
      </trkpt>
      <trkpt lat="43.72798" lon="1.67137">
        <ele>197.21</ele>
        <time>2019-10-10T13:46:12Z</time>
      </trkpt>
      <trkpt lat="43.72803" lon="1.67152">
        <ele>195.28</ele>
        <time>2019-10-10T13:46:26Z</time>
      </trkpt>
      <trkpt lat="43.7281" lon="1.67175">
        <ele>193.84</ele>
        <time>2019-10-10T13:46:39Z</time>
      </trkpt>
      <trkpt lat="43.72812" lon="1.67179">
        <ele>193.84</ele>
        <time>2019-10-10T13:46:43Z</time>
      </trkpt>
      <trkpt lat="43.72815" lon="1.67187">
        <ele>192.88</ele>
        <time>2019-10-10T13:46:49Z</time>
      </trkpt>
      <trkpt lat="43.72817" lon="1.67194">
        <ele>192.4</ele>
        <time>2019-10-10T13:46:54Z</time>
      </trkpt>
      <trkpt lat="43.72818" lon="1.67199">
        <ele>191.92</ele>
        <time>2019-10-10T13:46:57Z</time>
      </trkpt>
      <trkpt lat="43.72817" lon="1.67203">
        <ele>191.92</ele>
        <time>2019-10-10T13:47:00Z</time>
      </trkpt>
      <trkpt lat="43.72817" lon="1.67206">
        <ele>191.44</ele>
        <time>2019-10-10T13:47:01Z</time>
      </trkpt>
      <trkpt lat="43.72817" lon="1.67208">
        <ele>191.44</ele>
        <time>2019-10-10T13:47:02Z</time>
      </trkpt>
      <trkpt lat="43.72818" lon="1.67211">
        <ele>191.44</ele>
        <time>2019-10-10T13:47:05Z</time>
      </trkpt>
      <trkpt lat="43.72818" lon="1.67212">
        <ele>190.96</ele>
        <time>2019-10-10T13:47:06Z</time>
      </trkpt>
      <trkpt lat="43.72822" lon="1.67223">
        <ele>190.48</ele>
        <time>2019-10-10T13:47:14Z</time>
      </trkpt>
      <trkpt lat="43.72823" lon="1.67228">
        <ele>190.48</ele>
        <time>2019-10-10T13:47:18Z</time>
      </trkpt>
      <trkpt lat="43.72824" lon="1.6723">
        <ele>189.52</ele>
        <time>2019-10-10T13:47:19Z</time>
      </trkpt>
      <trkpt lat="43.72825" lon="1.67231">
        <ele>190</ele>
        <time>2019-10-10T13:47:20Z</time>
      </trkpt>
      <trkpt lat="43.72828" lon="1.67242">
        <ele>189.04</ele>
        <time>2019-10-10T13:47:29Z</time>
      </trkpt>
      <trkpt lat="43.72828" lon="1.67243">
        <ele>189.04</ele>
        <time>2019-10-10T13:47:30Z</time>
      </trkpt>
      <trkpt lat="43.72829" lon="1.67245">
        <ele>189.04</ele>
        <time>2019-10-10T13:47:31Z</time>
      </trkpt>
      <trkpt lat="43.72834" lon="1.67265">
        <ele>187.59</ele>
        <time>2019-10-10T13:47:44Z</time>
      </trkpt>
      <trkpt lat="43.72836" lon="1.67268">
        <ele>187.59</ele>
        <time>2019-10-10T13:47:47Z</time>
      </trkpt>
      <trkpt lat="43.72837" lon="1.6727">
        <ele>187.59</ele>
        <time>2019-10-10T13:47:48Z</time>
      </trkpt>
      <trkpt lat="43.72837" lon="1.67271">
        <ele>187.59</ele>
        <time>2019-10-10T13:47:49Z</time>
      </trkpt>
      <trkpt lat="43.72842" lon="1.67284">
        <ele>187.11</ele>
        <time>2019-10-10T13:47:59Z</time>
      </trkpt>
      <trkpt lat="43.72848" lon="1.67302">
        <ele>186.63</ele>
        <time>2019-10-10T13:48:11Z</time>
      </trkpt>
      <trkpt lat="43.72856" lon="1.67324">
        <ele>185.67</ele>
        <time>2019-10-10T13:48:26Z</time>
      </trkpt>
      <trkpt lat="43.72862" lon="1.67335">
        <ele>185.19</ele>
        <time>2019-10-10T13:48:37Z</time>
      </trkpt>
      <trkpt lat="43.72871" lon="1.67352">
        <ele>185.19</ele>
        <time>2019-10-10T13:48:50Z</time>
      </trkpt>
      <trkpt lat="43.72879" lon="1.67365">
        <ele>184.71</ele>
        <time>2019-10-10T13:49:00Z</time>
      </trkpt>
      <trkpt lat="43.7289" lon="1.67384">
        <ele>184.71</ele>
        <time>2019-10-10T13:49:14Z</time>
      </trkpt>
      <trkpt lat="43.72898" lon="1.67399">
        <ele>184.23</ele>
        <time>2019-10-10T13:49:26Z</time>
      </trkpt>
      <trkpt lat="43.72909" lon="1.67417">
        <ele>184.23</ele>
        <time>2019-10-10T13:49:40Z</time>
      </trkpt>
      <trkpt lat="43.72922" lon="1.67437">
        <ele>183.75</ele>
        <time>2019-10-10T13:49:57Z</time>
      </trkpt>
      <trkpt lat="43.72928" lon="1.67446">
        <ele>183.75</ele>
        <time>2019-10-10T13:50:05Z</time>
      </trkpt>
      <trkpt lat="43.72927" lon="1.67455">
        <ele>183.75</ele>
        <time>2019-10-10T13:50:10Z</time>
      </trkpt>
      <trkpt lat="43.72926" lon="1.67456">
        <ele>183.75</ele>
        <time>2019-10-10T13:50:11Z</time>
      </trkpt>
      <trkpt lat="43.72926" lon="1.67457">
        <ele>183.27</ele>
        <time>2019-10-10T13:50:12Z</time>
      </trkpt>
      <trkpt lat="43.72924" lon="1.67458">
        <ele>183.27</ele>
        <time>2019-10-10T13:50:13Z</time>
      </trkpt>
      <trkpt lat="43.72924" lon="1.67459">
        <ele>183.27</ele>
        <time>2019-10-10T13:50:14Z</time>
      </trkpt>
      <trkpt lat="43.7291" lon="1.67472">
        <ele>183.27</ele>
        <time>2019-10-10T13:50:28Z</time>
      </trkpt>
      <trkpt lat="43.72898" lon="1.67485">
        <ele>183.27</ele>
        <time>2019-10-10T13:50:42Z</time>
      </trkpt>
      <trkpt lat="43.72897" lon="1.67485">
        <ele>183.27</ele>
        <time>2019-10-10T13:50:43Z</time>
      </trkpt>
      <trkpt lat="43.72893" lon="1.67492">
        <ele>183.75</ele>
        <time>2019-10-10T13:50:49Z</time>
      </trkpt>
      <trkpt lat="43.72883" lon="1.67504">
        <ele>183.75</ele>
        <time>2019-10-10T13:51:00Z</time>
      </trkpt>
      <trkpt lat="43.7288" lon="1.67508">
        <ele>183.75</ele>
        <time>2019-10-10T13:51:04Z</time>
      </trkpt>
      <trkpt lat="43.72878" lon="1.67511">
        <ele>183.75</ele>
        <time>2019-10-10T13:51:07Z</time>
      </trkpt>
      <trkpt lat="43.72877" lon="1.67512">
        <ele>183.75</ele>
        <time>2019-10-10T13:51:08Z</time>
      </trkpt>
      <trkpt lat="43.72875" lon="1.67516">
        <ele>183.75</ele>
        <time>2019-10-10T13:51:12Z</time>
      </trkpt>
      <trkpt lat="43.72874" lon="1.67518">
        <ele>183.75</ele>
        <time>2019-10-10T13:51:13Z</time>
      </trkpt>
      <trkpt lat="43.72864" lon="1.6753">
        <ele>183.75</ele>
        <time>2019-10-10T13:51:25Z</time>
      </trkpt>
      <trkpt lat="43.72853" lon="1.67544">
        <ele>183.75</ele>
        <time>2019-10-10T13:51:38Z</time>
      </trkpt>
      <trkpt lat="43.72842" lon="1.67555">
        <ele>183.75</ele>
        <time>2019-10-10T13:51:50Z</time>
      </trkpt>
      <trkpt lat="43.72832" lon="1.67565">
        <ele>183.75</ele>
        <time>2019-10-10T13:52:01Z</time>
      </trkpt>
      <trkpt lat="43.7283" lon="1.67568">
        <ele>183.75</ele>
        <time>2019-10-10T13:52:03Z</time>
      </trkpt>
      <trkpt lat="43.72821" lon="1.67575">
        <ele>183.75</ele>
        <time>2019-10-10T13:52:13Z</time>
      </trkpt>
      <trkpt lat="43.7282" lon="1.67575">
        <ele>183.75</ele>
        <time>2019-10-10T13:52:14Z</time>
      </trkpt>
      <trkpt lat="43.7281" lon="1.67585">
        <ele>183.75</ele>
        <time>2019-10-10T13:52:25Z</time>
      </trkpt>
      <trkpt lat="43.72808" lon="1.67594">
        <ele>183.75</ele>
        <time>2019-10-10T13:52:32Z</time>
      </trkpt>
      <trkpt lat="43.72807" lon="1.676">
        <ele>183.75</ele>
        <time>2019-10-10T13:52:35Z</time>
      </trkpt>
      <trkpt lat="43.72806" lon="1.67617">
        <ele>183.75</ele>
        <time>2019-10-10T13:52:47Z</time>
      </trkpt>
      <trkpt lat="43.72807" lon="1.6763">
        <ele>183.75</ele>
        <time>2019-10-10T13:52:55Z</time>
      </trkpt>
      <trkpt lat="43.72805" lon="1.67642">
        <ele>184.23</ele>
        <time>2019-10-10T13:53:07Z</time>
      </trkpt>
      <trkpt lat="43.72798" lon="1.67648">
        <ele>184.23</ele>
        <time>2019-10-10T13:53:15Z</time>
      </trkpt>
      <trkpt lat="43.72796" lon="1.67649">
        <ele>184.23</ele>
        <time>2019-10-10T13:53:16Z</time>
      </trkpt>
      <trkpt lat="43.72795" lon="1.67649">
        <ele>184.23</ele>
        <time>2019-10-10T13:53:17Z</time>
      </trkpt>
      <trkpt lat="43.72791" lon="1.67653">
        <ele>184.23</ele>
        <time>2019-10-10T13:53:25Z</time>
      </trkpt>
      <trkpt lat="43.72789" lon="1.67653">
        <ele>184.23</ele>
        <time>2019-10-10T13:53:26Z</time>
      </trkpt>
      <trkpt lat="43.72788" lon="1.67654">
        <ele>184.23</ele>
        <time>2019-10-10T13:53:27Z</time>
      </trkpt>
      <trkpt lat="43.72787" lon="1.67654">
        <ele>184.23</ele>
        <time>2019-10-10T13:53:28Z</time>
      </trkpt>
      <trkpt lat="43.72773" lon="1.67661">
        <ele>184.23</ele>
        <time>2019-10-10T13:53:41Z</time>
      </trkpt>
      <trkpt lat="43.72772" lon="1.67663">
        <ele>184.23</ele>
        <time>2019-10-10T13:53:42Z</time>
      </trkpt>
      <trkpt lat="43.72771" lon="1.67664">
        <ele>184.23</ele>
        <time>2019-10-10T13:53:43Z</time>
      </trkpt>
      <trkpt lat="43.72766" lon="1.67675">
        <ele>184.23</ele>
        <time>2019-10-10T13:53:53Z</time>
      </trkpt>
      <trkpt lat="43.72753" lon="1.67679">
        <ele>184.23</ele>
        <time>2019-10-10T13:54:09Z</time>
      </trkpt>
      <trkpt lat="43.72751" lon="1.67678">
        <ele>184.23</ele>
        <time>2019-10-10T13:54:28Z</time>
      </trkpt>
      <trkpt lat="43.72751" lon="1.67678">
        <ele>184.23</ele>
        <time>2019-10-10T13:54:49Z</time>
      </trkpt>
      <trkpt lat="43.7275" lon="1.67679">
        <ele>184.71</ele>
        <time>2019-10-10T13:55:12Z</time>
      </trkpt>
      <trkpt lat="43.72751" lon="1.67681">
        <ele>184.71</ele>
        <time>2019-10-10T13:55:38Z</time>
      </trkpt>
      <trkpt lat="43.72751" lon="1.6768">
        <ele>184.71</ele>
        <time>2019-10-10T13:56:06Z</time>
      </trkpt>
      <trkpt lat="43.72751" lon="1.67679">
        <ele>184.71</ele>
        <time>2019-10-10T13:56:36Z</time>
      </trkpt>
    </trkseg>
  </trk>
</gpx>